<?xml version="1.0" encoding="UTF-8" standalone="no" ?>
<gpx xmlns="http://www.topografix.com/GPX/1/1" xmlns:xsi="http://www.w3.org/2001/XMLSchema-instance" xsi:schemaLocation="http://www.topografix.com/GPX/1/1 http://www.topografix.com/GPX/1/1/gpx.xsd" version="1.1" creator="VisuGPX - https://www.visugpx.com">
  <metadata>
    <name>SWANTA ==&gt; GHOREPANI</name>
    <desc><![CDATA[Trek entre DHAULAGIRI et ANNAPURNA]]></desc>
  </metadata>
  <trk>
    <name><![CDATA[SWANTA GHOREPANI]]></name>
    <trkseg>
      <trkpt lat="28.43485" lon="83.69089">
        <ele>2217.9</ele>
        <time>2013-10-31T02:50:54Z</time>
      </trkpt>
      <trkpt lat="28.43485" lon="83.69089">
        <ele>2221.26</ele>
        <time>2013-10-31T02:50:55Z</time>
      </trkpt>
      <trkpt lat="28.43485" lon="83.69089">
        <ele>2219.34</ele>
        <time>2013-10-31T02:51:17Z</time>
      </trkpt>
      <trkpt lat="28.43485" lon="83.69089">
        <ele>2219.82</ele>
        <time>2013-10-31T02:51:40Z</time>
      </trkpt>
      <trkpt lat="28.43484" lon="83.69089">
        <ele>2219.34</ele>
        <time>2013-10-31T02:52:00Z</time>
      </trkpt>
      <trkpt lat="28.43484" lon="83.69089">
        <ele>2219.34</ele>
        <time>2013-10-31T02:52:24Z</time>
      </trkpt>
      <trkpt lat="28.43484" lon="83.69092">
        <ele>2219.34</ele>
        <time>2013-10-31T02:52:44Z</time>
      </trkpt>
      <trkpt lat="28.43484" lon="83.69094">
        <ele>2219.82</ele>
        <time>2013-10-31T02:52:53Z</time>
      </trkpt>
      <trkpt lat="28.43484" lon="83.69097">
        <ele>2219.34</ele>
        <time>2013-10-31T02:52:55Z</time>
      </trkpt>
      <trkpt lat="28.43487" lon="83.69106">
        <ele>2218.86</ele>
        <time>2013-10-31T02:53:05Z</time>
      </trkpt>
      <trkpt lat="28.4349" lon="83.69114">
        <ele>2215.5</ele>
        <time>2013-10-31T02:53:18Z</time>
      </trkpt>
      <trkpt lat="28.43488" lon="83.69117">
        <ele>2215.01</ele>
        <time>2013-10-31T02:53:23Z</time>
      </trkpt>
      <trkpt lat="28.43481" lon="83.69117">
        <ele>2213.09</ele>
        <time>2013-10-31T02:53:35Z</time>
      </trkpt>
      <trkpt lat="28.43477" lon="83.69117">
        <ele>2212.61</ele>
        <time>2013-10-31T02:53:38Z</time>
      </trkpt>
      <trkpt lat="28.43474" lon="83.6911">
        <ele>2211.65</ele>
        <time>2013-10-31T02:53:48Z</time>
      </trkpt>
      <trkpt lat="28.43462" lon="83.69108">
        <ele>2210.21</ele>
        <time>2013-10-31T02:54:01Z</time>
      </trkpt>
      <trkpt lat="28.43463" lon="83.69114">
        <ele>2207.32</ele>
        <time>2013-10-31T02:54:15Z</time>
      </trkpt>
      <trkpt lat="28.43464" lon="83.69118">
        <ele>2204.92</ele>
        <time>2013-10-31T02:54:29Z</time>
      </trkpt>
      <trkpt lat="28.4346" lon="83.69114">
        <ele>2203</ele>
        <time>2013-10-31T02:54:45Z</time>
      </trkpt>
      <trkpt lat="28.43452" lon="83.6911">
        <ele>2201.08</ele>
        <time>2013-10-31T02:54:56Z</time>
      </trkpt>
      <trkpt lat="28.43441" lon="83.69103">
        <ele>2200.59</ele>
        <time>2013-10-31T02:55:07Z</time>
      </trkpt>
      <trkpt lat="28.43435" lon="83.69092">
        <ele>2201.08</ele>
        <time>2013-10-31T02:55:15Z</time>
      </trkpt>
      <trkpt lat="28.43433" lon="83.6909">
        <ele>2201.08</ele>
        <time>2013-10-31T02:55:17Z</time>
      </trkpt>
      <trkpt lat="28.43431" lon="83.69084">
        <ele>2200.59</ele>
        <time>2013-10-31T02:55:22Z</time>
      </trkpt>
      <trkpt lat="28.43428" lon="83.69079">
        <ele>2200.59</ele>
        <time>2013-10-31T02:55:26Z</time>
      </trkpt>
      <trkpt lat="28.43421" lon="83.69069">
        <ele>2200.11</ele>
        <time>2013-10-31T02:55:36Z</time>
      </trkpt>
      <trkpt lat="28.4342" lon="83.69072">
        <ele>2198.67</ele>
        <time>2013-10-31T02:55:48Z</time>
      </trkpt>
      <trkpt lat="28.43424" lon="83.69083">
        <ele>2196.27</ele>
        <time>2013-10-31T02:55:57Z</time>
      </trkpt>
      <trkpt lat="28.43427" lon="83.69101">
        <ele>2193.39</ele>
        <time>2013-10-31T02:56:12Z</time>
      </trkpt>
      <trkpt lat="28.43413" lon="83.69112">
        <ele>2192.9</ele>
        <time>2013-10-31T02:56:26Z</time>
      </trkpt>
      <trkpt lat="28.43401" lon="83.69112">
        <ele>2191.94</ele>
        <time>2013-10-31T02:56:37Z</time>
      </trkpt>
      <trkpt lat="28.43388" lon="83.69111">
        <ele>2190.5</ele>
        <time>2013-10-31T02:56:50Z</time>
      </trkpt>
      <trkpt lat="28.43386" lon="83.69113">
        <ele>2189.54</ele>
        <time>2013-10-31T02:56:54Z</time>
      </trkpt>
      <trkpt lat="28.43375" lon="83.69124">
        <ele>2188.1</ele>
        <time>2013-10-31T02:57:09Z</time>
      </trkpt>
      <trkpt lat="28.43367" lon="83.69137">
        <ele>2187.14</ele>
        <time>2013-10-31T02:57:22Z</time>
      </trkpt>
      <trkpt lat="28.43365" lon="83.69139">
        <ele>2187.14</ele>
        <time>2013-10-31T02:57:25Z</time>
      </trkpt>
      <trkpt lat="28.43363" lon="83.69155">
        <ele>2188.58</ele>
        <time>2013-10-31T02:57:41Z</time>
      </trkpt>
      <trkpt lat="28.4336" lon="83.69167">
        <ele>2188.1</ele>
        <time>2013-10-31T02:57:56Z</time>
      </trkpt>
      <trkpt lat="28.43357" lon="83.69172">
        <ele>2188.58</ele>
        <time>2013-10-31T02:58:01Z</time>
      </trkpt>
      <trkpt lat="28.43348" lon="83.69175">
        <ele>2187.62</ele>
        <time>2013-10-31T02:58:09Z</time>
      </trkpt>
      <trkpt lat="28.43346" lon="83.69177">
        <ele>2187.62</ele>
        <time>2013-10-31T02:58:11Z</time>
      </trkpt>
      <trkpt lat="28.43338" lon="83.69182">
        <ele>2186.18</ele>
        <time>2013-10-31T02:58:23Z</time>
      </trkpt>
      <trkpt lat="28.43337" lon="83.69183">
        <ele>2187.14</ele>
        <time>2013-10-31T02:58:24Z</time>
      </trkpt>
      <trkpt lat="28.43334" lon="83.69186">
        <ele>2187.14</ele>
        <time>2013-10-31T02:58:28Z</time>
      </trkpt>
      <trkpt lat="28.4333" lon="83.69188">
        <ele>2187.14</ele>
        <time>2013-10-31T02:58:32Z</time>
      </trkpt>
      <trkpt lat="28.43324" lon="83.6919">
        <ele>2186.66</ele>
        <time>2013-10-31T02:58:38Z</time>
      </trkpt>
      <trkpt lat="28.43317" lon="83.69198">
        <ele>2187.14</ele>
        <time>2013-10-31T02:58:51Z</time>
      </trkpt>
      <trkpt lat="28.43313" lon="83.69204">
        <ele>2186.66</ele>
        <time>2013-10-31T02:59:03Z</time>
      </trkpt>
      <trkpt lat="28.43307" lon="83.69212">
        <ele>2186.66</ele>
        <time>2013-10-31T02:59:15Z</time>
      </trkpt>
      <trkpt lat="28.43299" lon="83.69222">
        <ele>2185.69</ele>
        <time>2013-10-31T02:59:31Z</time>
      </trkpt>
      <trkpt lat="28.43293" lon="83.69231">
        <ele>2186.66</ele>
        <time>2013-10-31T02:59:44Z</time>
      </trkpt>
      <trkpt lat="28.43292" lon="83.69239">
        <ele>2187.62</ele>
        <time>2013-10-31T02:59:56Z</time>
      </trkpt>
      <trkpt lat="28.43292" lon="83.69245">
        <ele>2187.62</ele>
        <time>2013-10-31T03:00:03Z</time>
      </trkpt>
      <trkpt lat="28.43295" lon="83.69256">
        <ele>2189.06</ele>
        <time>2013-10-31T03:00:16Z</time>
      </trkpt>
      <trkpt lat="28.43296" lon="83.69269">
        <ele>2190.5</ele>
        <time>2013-10-31T03:00:28Z</time>
      </trkpt>
      <trkpt lat="28.43292" lon="83.69283">
        <ele>2190.98</ele>
        <time>2013-10-31T03:00:42Z</time>
      </trkpt>
      <trkpt lat="28.43292" lon="83.69286">
        <ele>2190.98</ele>
        <time>2013-10-31T03:00:44Z</time>
      </trkpt>
      <trkpt lat="28.4329" lon="83.69291">
        <ele>2191.46</ele>
        <time>2013-10-31T03:00:49Z</time>
      </trkpt>
      <trkpt lat="28.43281" lon="83.69302">
        <ele>2189.06</ele>
        <time>2013-10-31T03:01:04Z</time>
      </trkpt>
      <trkpt lat="28.43275" lon="83.69309">
        <ele>2186.66</ele>
        <time>2013-10-31T03:01:18Z</time>
      </trkpt>
      <trkpt lat="28.43273" lon="83.69316">
        <ele>2183.29</ele>
        <time>2013-10-31T03:01:29Z</time>
      </trkpt>
      <trkpt lat="28.43273" lon="83.69327">
        <ele>2181.37</ele>
        <time>2013-10-31T03:01:42Z</time>
      </trkpt>
      <trkpt lat="28.43267" lon="83.6933">
        <ele>2179.45</ele>
        <time>2013-10-31T03:01:51Z</time>
      </trkpt>
      <trkpt lat="28.43257" lon="83.69333">
        <ele>2177.04</ele>
        <time>2013-10-31T03:02:06Z</time>
      </trkpt>
      <trkpt lat="28.43248" lon="83.69338">
        <ele>2174.64</ele>
        <time>2013-10-31T03:02:21Z</time>
      </trkpt>
      <trkpt lat="28.4324" lon="83.69344">
        <ele>2172.24</ele>
        <time>2013-10-31T03:02:34Z</time>
      </trkpt>
      <trkpt lat="28.43235" lon="83.69346">
        <ele>2169.83</ele>
        <time>2013-10-31T03:02:46Z</time>
      </trkpt>
      <trkpt lat="28.43227" lon="83.69352">
        <ele>2166.47</ele>
        <time>2013-10-31T03:02:59Z</time>
      </trkpt>
      <trkpt lat="28.43219" lon="83.69358">
        <ele>2163.58</ele>
        <time>2013-10-31T03:03:11Z</time>
      </trkpt>
      <trkpt lat="28.4321" lon="83.69363">
        <ele>2160.22</ele>
        <time>2013-10-31T03:03:26Z</time>
      </trkpt>
      <trkpt lat="28.43209" lon="83.69364">
        <ele>2160.22</ele>
        <time>2013-10-31T03:03:27Z</time>
      </trkpt>
      <trkpt lat="28.43203" lon="83.69371">
        <ele>2157.82</ele>
        <time>2013-10-31T03:03:38Z</time>
      </trkpt>
      <trkpt lat="28.43198" lon="83.69381">
        <ele>2157.34</ele>
        <time>2013-10-31T03:03:53Z</time>
      </trkpt>
      <trkpt lat="28.43198" lon="83.69381">
        <ele>2156.86</ele>
        <time>2013-10-31T03:04:23Z</time>
      </trkpt>
      <trkpt lat="28.43199" lon="83.69381">
        <ele>2156.86</ele>
        <time>2013-10-31T03:04:50Z</time>
      </trkpt>
      <trkpt lat="28.43199" lon="83.69382">
        <ele>2156.37</ele>
        <time>2013-10-31T03:05:12Z</time>
      </trkpt>
      <trkpt lat="28.43198" lon="83.69382">
        <ele>2156.86</ele>
        <time>2013-10-31T03:05:28Z</time>
      </trkpt>
      <trkpt lat="28.43198" lon="83.69382">
        <ele>2156.37</ele>
        <time>2013-10-31T03:06:03Z</time>
      </trkpt>
      <trkpt lat="28.43198" lon="83.69382">
        <ele>2156.37</ele>
        <time>2013-10-31T03:06:27Z</time>
      </trkpt>
      <trkpt lat="28.43199" lon="83.69382">
        <ele>2156.37</ele>
        <time>2013-10-31T03:06:50Z</time>
      </trkpt>
      <trkpt lat="28.43199" lon="83.69382">
        <ele>2156.37</ele>
        <time>2013-10-31T03:07:10Z</time>
      </trkpt>
      <trkpt lat="28.43194" lon="83.69391">
        <ele>2153.01</ele>
        <time>2013-10-31T03:07:23Z</time>
      </trkpt>
      <trkpt lat="28.4319" lon="83.69391">
        <ele>2152.05</ele>
        <time>2013-10-31T03:07:27Z</time>
      </trkpt>
      <trkpt lat="28.43189" lon="83.69387">
        <ele>2150.61</ele>
        <time>2013-10-31T03:07:34Z</time>
      </trkpt>
      <trkpt lat="28.43185" lon="83.69388">
        <ele>2147.72</ele>
        <time>2013-10-31T03:07:47Z</time>
      </trkpt>
      <trkpt lat="28.43181" lon="83.69398">
        <ele>2144.36</ele>
        <time>2013-10-31T03:08:00Z</time>
      </trkpt>
      <trkpt lat="28.4318" lon="83.69403">
        <ele>2141.95</ele>
        <time>2013-10-31T03:08:08Z</time>
      </trkpt>
      <trkpt lat="28.43178" lon="83.69411">
        <ele>2140.99</ele>
        <time>2013-10-31T03:08:22Z</time>
      </trkpt>
      <trkpt lat="28.43173" lon="83.69409">
        <ele>2138.59</ele>
        <time>2013-10-31T03:08:33Z</time>
      </trkpt>
      <trkpt lat="28.43168" lon="83.69406">
        <ele>2135.71</ele>
        <time>2013-10-31T03:08:46Z</time>
      </trkpt>
      <trkpt lat="28.4316" lon="83.694">
        <ele>2132.82</ele>
        <time>2013-10-31T03:08:58Z</time>
      </trkpt>
      <trkpt lat="28.43151" lon="83.69399">
        <ele>2129.94</ele>
        <time>2013-10-31T03:09:11Z</time>
      </trkpt>
      <trkpt lat="28.4314" lon="83.69404">
        <ele>2127.05</ele>
        <time>2013-10-31T03:09:27Z</time>
      </trkpt>
      <trkpt lat="28.43127" lon="83.69408">
        <ele>2123.69</ele>
        <time>2013-10-31T03:09:43Z</time>
      </trkpt>
      <trkpt lat="28.43122" lon="83.6941">
        <ele>2121.77</ele>
        <time>2013-10-31T03:09:52Z</time>
      </trkpt>
      <trkpt lat="28.43112" lon="83.69415">
        <ele>2118.4</ele>
        <time>2013-10-31T03:10:06Z</time>
      </trkpt>
      <trkpt lat="28.43109" lon="83.69419">
        <ele>2116.96</ele>
        <time>2013-10-31T03:10:12Z</time>
      </trkpt>
      <trkpt lat="28.43103" lon="83.6942">
        <ele>2113.12</ele>
        <time>2013-10-31T03:10:29Z</time>
      </trkpt>
      <trkpt lat="28.43104" lon="83.6941">
        <ele>2109.75</ele>
        <time>2013-10-31T03:10:41Z</time>
      </trkpt>
      <trkpt lat="28.43105" lon="83.69404">
        <ele>2108.31</ele>
        <time>2013-10-31T03:10:48Z</time>
      </trkpt>
      <trkpt lat="28.43105" lon="83.69396">
        <ele>2104.94</ele>
        <time>2013-10-31T03:11:02Z</time>
      </trkpt>
      <trkpt lat="28.43108" lon="83.69389">
        <ele>2102.06</ele>
        <time>2013-10-31T03:11:15Z</time>
      </trkpt>
      <trkpt lat="28.43104" lon="83.69386">
        <ele>2099.18</ele>
        <time>2013-10-31T03:11:30Z</time>
      </trkpt>
      <trkpt lat="28.43095" lon="83.69383">
        <ele>2095.81</ele>
        <time>2013-10-31T03:11:46Z</time>
      </trkpt>
      <trkpt lat="28.43085" lon="83.69376">
        <ele>2095.33</ele>
        <time>2013-10-31T03:11:54Z</time>
      </trkpt>
      <trkpt lat="28.43077" lon="83.69363">
        <ele>2092.93</ele>
        <time>2013-10-31T03:12:08Z</time>
      </trkpt>
      <trkpt lat="28.43076" lon="83.69364">
        <ele>2092.93</ele>
        <time>2013-10-31T03:12:16Z</time>
      </trkpt>
      <trkpt lat="28.43083" lon="83.69373">
        <ele>2094.85</ele>
        <time>2013-10-31T03:12:29Z</time>
      </trkpt>
      <trkpt lat="28.43081" lon="83.69376">
        <ele>2096.77</ele>
        <time>2013-10-31T03:12:41Z</time>
      </trkpt>
      <trkpt lat="28.43073" lon="83.69377">
        <ele>2097.25</ele>
        <time>2013-10-31T03:12:55Z</time>
      </trkpt>
      <trkpt lat="28.43059" lon="83.69374">
        <ele>2096.29</ele>
        <time>2013-10-31T03:13:06Z</time>
      </trkpt>
      <trkpt lat="28.43051" lon="83.69373">
        <ele>2097.25</ele>
        <time>2013-10-31T03:13:17Z</time>
      </trkpt>
      <trkpt lat="28.43045" lon="83.69371">
        <ele>2097.73</ele>
        <time>2013-10-31T03:13:29Z</time>
      </trkpt>
      <trkpt lat="28.43045" lon="83.69369">
        <ele>2097.25</ele>
        <time>2013-10-31T03:13:32Z</time>
      </trkpt>
      <trkpt lat="28.43047" lon="83.69359">
        <ele>2096.29</ele>
        <time>2013-10-31T03:13:44Z</time>
      </trkpt>
      <trkpt lat="28.43049" lon="83.69352">
        <ele>2093.89</ele>
        <time>2013-10-31T03:13:58Z</time>
      </trkpt>
      <trkpt lat="28.43051" lon="83.69341">
        <ele>2091.97</ele>
        <time>2013-10-31T03:14:14Z</time>
      </trkpt>
      <trkpt lat="28.43052" lon="83.69329">
        <ele>2091.49</ele>
        <time>2013-10-31T03:14:30Z</time>
      </trkpt>
      <trkpt lat="28.43054" lon="83.69316">
        <ele>2090.52</ele>
        <time>2013-10-31T03:14:43Z</time>
      </trkpt>
      <trkpt lat="28.43055" lon="83.693">
        <ele>2091</ele>
        <time>2013-10-31T03:14:57Z</time>
      </trkpt>
      <trkpt lat="28.43059" lon="83.69289">
        <ele>2093.41</ele>
        <time>2013-10-31T03:15:12Z</time>
      </trkpt>
      <trkpt lat="28.4306" lon="83.69277">
        <ele>2096.29</ele>
        <time>2013-10-31T03:15:27Z</time>
      </trkpt>
      <trkpt lat="28.43063" lon="83.6927">
        <ele>2098.21</ele>
        <time>2013-10-31T03:15:42Z</time>
      </trkpt>
      <trkpt lat="28.43065" lon="83.69263">
        <ele>2099.66</ele>
        <time>2013-10-31T03:15:56Z</time>
      </trkpt>
      <trkpt lat="28.43067" lon="83.69259">
        <ele>2102.06</ele>
        <time>2013-10-31T03:16:09Z</time>
      </trkpt>
      <trkpt lat="28.43069" lon="83.69251">
        <ele>2103.02</ele>
        <time>2013-10-31T03:16:23Z</time>
      </trkpt>
      <trkpt lat="28.43066" lon="83.69244">
        <ele>2104.94</ele>
        <time>2013-10-31T03:16:39Z</time>
      </trkpt>
      <trkpt lat="28.43061" lon="83.69236">
        <ele>2107.83</ele>
        <time>2013-10-31T03:16:56Z</time>
      </trkpt>
      <trkpt lat="28.43054" lon="83.69227">
        <ele>2109.75</ele>
        <time>2013-10-31T03:17:13Z</time>
      </trkpt>
      <trkpt lat="28.43047" lon="83.69222">
        <ele>2112.15</ele>
        <time>2013-10-31T03:17:30Z</time>
      </trkpt>
      <trkpt lat="28.43042" lon="83.69219">
        <ele>2114.56</ele>
        <time>2013-10-31T03:17:48Z</time>
      </trkpt>
      <trkpt lat="28.43039" lon="83.69215">
        <ele>2115.52</ele>
        <time>2013-10-31T03:18:00Z</time>
      </trkpt>
      <trkpt lat="28.43034" lon="83.69212">
        <ele>2118.4</ele>
        <time>2013-10-31T03:18:18Z</time>
      </trkpt>
      <trkpt lat="28.43028" lon="83.69206">
        <ele>2119.84</ele>
        <time>2013-10-31T03:18:30Z</time>
      </trkpt>
      <trkpt lat="28.43023" lon="83.69203">
        <ele>2121.77</ele>
        <time>2013-10-31T03:18:45Z</time>
      </trkpt>
      <trkpt lat="28.43017" lon="83.69199">
        <ele>2123.69</ele>
        <time>2013-10-31T03:18:58Z</time>
      </trkpt>
      <trkpt lat="28.43009" lon="83.69195">
        <ele>2125.61</ele>
        <time>2013-10-31T03:19:14Z</time>
      </trkpt>
      <trkpt lat="28.43005" lon="83.69191">
        <ele>2127.53</ele>
        <time>2013-10-31T03:19:32Z</time>
      </trkpt>
      <trkpt lat="28.42998" lon="83.69187">
        <ele>2128.98</ele>
        <time>2013-10-31T03:19:49Z</time>
      </trkpt>
      <trkpt lat="28.4299" lon="83.69188">
        <ele>2131.38</ele>
        <time>2013-10-31T03:20:03Z</time>
      </trkpt>
      <trkpt lat="28.42993" lon="83.6919">
        <ele>2131.86</ele>
        <time>2013-10-31T03:20:20Z</time>
      </trkpt>
      <trkpt lat="28.42995" lon="83.69188">
        <ele>2131.38</ele>
        <time>2013-10-31T03:20:42Z</time>
      </trkpt>
      <trkpt lat="28.42995" lon="83.69187">
        <ele>2130.9</ele>
        <time>2013-10-31T03:21:05Z</time>
      </trkpt>
      <trkpt lat="28.42995" lon="83.69186">
        <ele>2130.9</ele>
        <time>2013-10-31T03:21:32Z</time>
      </trkpt>
      <trkpt lat="28.42994" lon="83.69187">
        <ele>2129.94</ele>
        <time>2013-10-31T03:21:57Z</time>
      </trkpt>
      <trkpt lat="28.42989" lon="83.69191">
        <ele>2132.82</ele>
        <time>2013-10-31T03:22:11Z</time>
      </trkpt>
      <trkpt lat="28.42985" lon="83.69192">
        <ele>2134.74</ele>
        <time>2013-10-31T03:22:24Z</time>
      </trkpt>
      <trkpt lat="28.42981" lon="83.69196">
        <ele>2137.15</ele>
        <time>2013-10-31T03:22:38Z</time>
      </trkpt>
      <trkpt lat="28.42979" lon="83.69204">
        <ele>2139.07</ele>
        <time>2013-10-31T03:22:54Z</time>
      </trkpt>
      <trkpt lat="28.42973" lon="83.69205">
        <ele>2141.47</ele>
        <time>2013-10-31T03:23:11Z</time>
      </trkpt>
      <trkpt lat="28.42969" lon="83.69204">
        <ele>2143.88</ele>
        <time>2013-10-31T03:23:26Z</time>
      </trkpt>
      <trkpt lat="28.42967" lon="83.69203">
        <ele>2144.84</ele>
        <time>2013-10-31T03:23:31Z</time>
      </trkpt>
      <trkpt lat="28.42963" lon="83.69206">
        <ele>2147.24</ele>
        <time>2013-10-31T03:23:45Z</time>
      </trkpt>
      <trkpt lat="28.42958" lon="83.69206">
        <ele>2150.13</ele>
        <time>2013-10-31T03:24:02Z</time>
      </trkpt>
      <trkpt lat="28.42951" lon="83.69201">
        <ele>2153.01</ele>
        <time>2013-10-31T03:24:25Z</time>
      </trkpt>
      <trkpt lat="28.42951" lon="83.69205">
        <ele>2154.45</ele>
        <time>2013-10-31T03:24:44Z</time>
      </trkpt>
      <trkpt lat="28.42947" lon="83.69204">
        <ele>2156.37</ele>
        <time>2013-10-31T03:24:56Z</time>
      </trkpt>
      <trkpt lat="28.42941" lon="83.69201">
        <ele>2157.82</ele>
        <time>2013-10-31T03:25:15Z</time>
      </trkpt>
      <trkpt lat="28.42942" lon="83.69209">
        <ele>2160.22</ele>
        <time>2013-10-31T03:25:32Z</time>
      </trkpt>
      <trkpt lat="28.42942" lon="83.69216">
        <ele>2162.14</ele>
        <time>2013-10-31T03:25:47Z</time>
      </trkpt>
      <trkpt lat="28.42938" lon="83.69216">
        <ele>2164.55</ele>
        <time>2013-10-31T03:26:04Z</time>
      </trkpt>
      <trkpt lat="28.42932" lon="83.69209">
        <ele>2166.47</ele>
        <time>2013-10-31T03:26:21Z</time>
      </trkpt>
      <trkpt lat="28.42927" lon="83.69213">
        <ele>2167.91</ele>
        <time>2013-10-31T03:26:34Z</time>
      </trkpt>
      <trkpt lat="28.42924" lon="83.69214">
        <ele>2168.87</ele>
        <time>2013-10-31T03:26:52Z</time>
      </trkpt>
      <trkpt lat="28.42925" lon="83.69214">
        <ele>2168.87</ele>
        <time>2013-10-31T03:27:19Z</time>
      </trkpt>
      <trkpt lat="28.42924" lon="83.69214">
        <ele>2168.87</ele>
        <time>2013-10-31T03:27:39Z</time>
      </trkpt>
      <trkpt lat="28.42925" lon="83.69215">
        <ele>2168.87</ele>
        <time>2013-10-31T03:28:11Z</time>
      </trkpt>
      <trkpt lat="28.42924" lon="83.69215">
        <ele>2168.87</ele>
        <time>2013-10-31T03:28:31Z</time>
      </trkpt>
      <trkpt lat="28.42924" lon="83.69215">
        <ele>2168.87</ele>
        <time>2013-10-31T03:28:57Z</time>
      </trkpt>
      <trkpt lat="28.42926" lon="83.69214">
        <ele>2168.87</ele>
        <time>2013-10-31T03:29:21Z</time>
      </trkpt>
      <trkpt lat="28.42926" lon="83.69215">
        <ele>2169.35</ele>
        <time>2013-10-31T03:29:42Z</time>
      </trkpt>
      <trkpt lat="28.42925" lon="83.69215">
        <ele>2169.35</ele>
        <time>2013-10-31T03:30:13Z</time>
      </trkpt>
      <trkpt lat="28.42925" lon="83.69215">
        <ele>2169.35</ele>
        <time>2013-10-31T03:30:30Z</time>
      </trkpt>
      <trkpt lat="28.42924" lon="83.69215">
        <ele>2169.35</ele>
        <time>2013-10-31T03:30:53Z</time>
      </trkpt>
      <trkpt lat="28.42924" lon="83.69216">
        <ele>2169.35</ele>
        <time>2013-10-31T03:31:22Z</time>
      </trkpt>
      <trkpt lat="28.42924" lon="83.69216">
        <ele>2169.35</ele>
        <time>2013-10-31T03:31:45Z</time>
      </trkpt>
      <trkpt lat="28.42924" lon="83.69215">
        <ele>2169.83</ele>
        <time>2013-10-31T03:32:00Z</time>
      </trkpt>
      <trkpt lat="28.42924" lon="83.69217">
        <ele>2169.83</ele>
        <time>2013-10-31T03:32:18Z</time>
      </trkpt>
      <trkpt lat="28.42916" lon="83.69213">
        <ele>2172.72</ele>
        <time>2013-10-31T03:32:32Z</time>
      </trkpt>
      <trkpt lat="28.42913" lon="83.69209">
        <ele>2175.12</ele>
        <time>2013-10-31T03:32:46Z</time>
      </trkpt>
      <trkpt lat="28.42907" lon="83.69215">
        <ele>2177.52</ele>
        <time>2013-10-31T03:33:01Z</time>
      </trkpt>
      <trkpt lat="28.42901" lon="83.69216">
        <ele>2178.97</ele>
        <time>2013-10-31T03:33:13Z</time>
      </trkpt>
      <trkpt lat="28.42899" lon="83.69214">
        <ele>2180.89</ele>
        <time>2013-10-31T03:33:26Z</time>
      </trkpt>
      <trkpt lat="28.429" lon="83.69205">
        <ele>2183.29</ele>
        <time>2013-10-31T03:33:43Z</time>
      </trkpt>
      <trkpt lat="28.42898" lon="83.69202">
        <ele>2184.25</ele>
        <time>2013-10-31T03:33:55Z</time>
      </trkpt>
      <trkpt lat="28.42894" lon="83.69201">
        <ele>2185.69</ele>
        <time>2013-10-31T03:34:10Z</time>
      </trkpt>
      <trkpt lat="28.42894" lon="83.69201">
        <ele>2185.69</ele>
        <time>2013-10-31T03:34:12Z</time>
      </trkpt>
      <trkpt lat="28.42891" lon="83.69198">
        <ele>2187.14</ele>
        <time>2013-10-31T03:34:22Z</time>
      </trkpt>
      <trkpt lat="28.42885" lon="83.69195">
        <ele>2189.06</ele>
        <time>2013-10-31T03:34:34Z</time>
      </trkpt>
      <trkpt lat="28.42881" lon="83.69191">
        <ele>2191.46</ele>
        <time>2013-10-31T03:34:47Z</time>
      </trkpt>
      <trkpt lat="28.42875" lon="83.69194">
        <ele>2193.39</ele>
        <time>2013-10-31T03:34:59Z</time>
      </trkpt>
      <trkpt lat="28.42869" lon="83.69189">
        <ele>2195.31</ele>
        <time>2013-10-31T03:35:14Z</time>
      </trkpt>
      <trkpt lat="28.42861" lon="83.69187">
        <ele>2197.71</ele>
        <time>2013-10-31T03:35:27Z</time>
      </trkpt>
      <trkpt lat="28.42853" lon="83.69183">
        <ele>2198.67</ele>
        <time>2013-10-31T03:35:39Z</time>
      </trkpt>
      <trkpt lat="28.42844" lon="83.69179">
        <ele>2200.59</ele>
        <time>2013-10-31T03:35:52Z</time>
      </trkpt>
      <trkpt lat="28.42837" lon="83.69172">
        <ele>2201.08</ele>
        <time>2013-10-31T03:36:05Z</time>
      </trkpt>
      <trkpt lat="28.42832" lon="83.69171">
        <ele>2202.04</ele>
        <time>2013-10-31T03:36:12Z</time>
      </trkpt>
      <trkpt lat="28.42827" lon="83.69173">
        <ele>2202.04</ele>
        <time>2013-10-31T03:36:17Z</time>
      </trkpt>
      <trkpt lat="28.42824" lon="83.69176">
        <ele>2202.04</ele>
        <time>2013-10-31T03:36:21Z</time>
      </trkpt>
      <trkpt lat="28.42822" lon="83.69179">
        <ele>2202.52</ele>
        <time>2013-10-31T03:36:24Z</time>
      </trkpt>
      <trkpt lat="28.42819" lon="83.69183">
        <ele>2203.48</ele>
        <time>2013-10-31T03:36:38Z</time>
      </trkpt>
      <trkpt lat="28.42818" lon="83.69182">
        <ele>2203.48</ele>
        <time>2013-10-31T03:36:53Z</time>
      </trkpt>
      <trkpt lat="28.42816" lon="83.69182">
        <ele>2203.96</ele>
        <time>2013-10-31T03:37:13Z</time>
      </trkpt>
      <trkpt lat="28.42816" lon="83.69182">
        <ele>2204.44</ele>
        <time>2013-10-31T03:37:17Z</time>
      </trkpt>
      <trkpt lat="28.42803" lon="83.69182">
        <ele>2207.32</ele>
        <time>2013-10-31T03:37:31Z</time>
      </trkpt>
      <trkpt lat="28.42793" lon="83.69182">
        <ele>2209.25</ele>
        <time>2013-10-31T03:37:45Z</time>
      </trkpt>
      <trkpt lat="28.42781" lon="83.69182">
        <ele>2211.17</ele>
        <time>2013-10-31T03:38:01Z</time>
      </trkpt>
      <trkpt lat="28.42781" lon="83.69181">
        <ele>2214.53</ele>
        <time>2013-10-31T03:38:18Z</time>
      </trkpt>
      <trkpt lat="28.42782" lon="83.69176">
        <ele>2215.98</ele>
        <time>2013-10-31T03:38:34Z</time>
      </trkpt>
      <trkpt lat="28.4278" lon="83.69177">
        <ele>2217.9</ele>
        <time>2013-10-31T03:38:48Z</time>
      </trkpt>
      <trkpt lat="28.4278" lon="83.69171">
        <ele>2220.78</ele>
        <time>2013-10-31T03:39:07Z</time>
      </trkpt>
      <trkpt lat="28.42778" lon="83.69174">
        <ele>2223.19</ele>
        <time>2013-10-31T03:39:24Z</time>
      </trkpt>
      <trkpt lat="28.42777" lon="83.69173">
        <ele>2226.07</ele>
        <time>2013-10-31T03:39:44Z</time>
      </trkpt>
      <trkpt lat="28.42772" lon="83.69164">
        <ele>2228.95</ele>
        <time>2013-10-31T03:40:02Z</time>
      </trkpt>
      <trkpt lat="28.42767" lon="83.6915">
        <ele>2230.4</ele>
        <time>2013-10-31T03:40:20Z</time>
      </trkpt>
      <trkpt lat="28.42765" lon="83.69148">
        <ele>2233.76</ele>
        <time>2013-10-31T03:40:41Z</time>
      </trkpt>
      <trkpt lat="28.42763" lon="83.69145">
        <ele>2235.2</ele>
        <time>2013-10-31T03:41:02Z</time>
      </trkpt>
      <trkpt lat="28.42762" lon="83.69136">
        <ele>2238.09</ele>
        <time>2013-10-31T03:41:19Z</time>
      </trkpt>
      <trkpt lat="28.42763" lon="83.69125">
        <ele>2240.01</ele>
        <time>2013-10-31T03:41:36Z</time>
      </trkpt>
      <trkpt lat="28.4275" lon="83.69125">
        <ele>2241.93</ele>
        <time>2013-10-31T03:41:55Z</time>
      </trkpt>
      <trkpt lat="28.42757" lon="83.69124">
        <ele>2243.85</ele>
        <time>2013-10-31T03:42:11Z</time>
      </trkpt>
      <trkpt lat="28.42751" lon="83.69116">
        <ele>2247.22</ele>
        <time>2013-10-31T03:42:29Z</time>
      </trkpt>
      <trkpt lat="28.42749" lon="83.69107">
        <ele>2249.62</ele>
        <time>2013-10-31T03:42:48Z</time>
      </trkpt>
      <trkpt lat="28.42751" lon="83.69098">
        <ele>2252.99</ele>
        <time>2013-10-31T03:43:06Z</time>
      </trkpt>
      <trkpt lat="28.42748" lon="83.69089">
        <ele>2255.39</ele>
        <time>2013-10-31T03:43:30Z</time>
      </trkpt>
      <trkpt lat="28.4275" lon="83.69091">
        <ele>2255.39</ele>
        <time>2013-10-31T03:43:57Z</time>
      </trkpt>
      <trkpt lat="28.42747" lon="83.6909">
        <ele>2256.35</ele>
        <time>2013-10-31T03:44:25Z</time>
      </trkpt>
      <trkpt lat="28.42747" lon="83.69092">
        <ele>2258.27</ele>
        <time>2013-10-31T03:44:54Z</time>
      </trkpt>
      <trkpt lat="28.42743" lon="83.69098">
        <ele>2261.16</ele>
        <time>2013-10-31T03:45:13Z</time>
      </trkpt>
      <trkpt lat="28.42742" lon="83.69093">
        <ele>2263.56</ele>
        <time>2013-10-31T03:45:27Z</time>
      </trkpt>
      <trkpt lat="28.42738" lon="83.69095">
        <ele>2265.96</ele>
        <time>2013-10-31T03:45:44Z</time>
      </trkpt>
      <trkpt lat="28.42736" lon="83.69088">
        <ele>2268.37</ele>
        <time>2013-10-31T03:46:03Z</time>
      </trkpt>
      <trkpt lat="28.42732" lon="83.6908">
        <ele>2269.33</ele>
        <time>2013-10-31T03:46:14Z</time>
      </trkpt>
      <trkpt lat="28.42727" lon="83.69071">
        <ele>2271.25</ele>
        <time>2013-10-31T03:46:28Z</time>
      </trkpt>
      <trkpt lat="28.4272" lon="83.69063">
        <ele>2272.69</ele>
        <time>2013-10-31T03:46:43Z</time>
      </trkpt>
      <trkpt lat="28.42717" lon="83.69061">
        <ele>2273.17</ele>
        <time>2013-10-31T03:46:58Z</time>
      </trkpt>
      <trkpt lat="28.42722" lon="83.69065">
        <ele>2272.69</ele>
        <time>2013-10-31T03:47:09Z</time>
      </trkpt>
      <trkpt lat="28.42726" lon="83.69072">
        <ele>2271.73</ele>
        <time>2013-10-31T03:47:21Z</time>
      </trkpt>
      <trkpt lat="28.4273" lon="83.69078">
        <ele>2271.73</ele>
        <time>2013-10-31T03:47:34Z</time>
      </trkpt>
      <trkpt lat="28.42729" lon="83.69075">
        <ele>2272.21</ele>
        <time>2013-10-31T03:48:03Z</time>
      </trkpt>
      <trkpt lat="28.42721" lon="83.69064">
        <ele>2272.69</ele>
        <time>2013-10-31T03:48:14Z</time>
      </trkpt>
      <trkpt lat="28.42716" lon="83.6906">
        <ele>2273.66</ele>
        <time>2013-10-31T03:48:27Z</time>
      </trkpt>
      <trkpt lat="28.42717" lon="83.6906">
        <ele>2273.66</ele>
        <time>2013-10-31T03:48:52Z</time>
      </trkpt>
      <trkpt lat="28.42717" lon="83.69059">
        <ele>2273.66</ele>
        <time>2013-10-31T03:49:18Z</time>
      </trkpt>
      <trkpt lat="28.42717" lon="83.69059">
        <ele>2273.66</ele>
        <time>2013-10-31T03:49:44Z</time>
      </trkpt>
      <trkpt lat="28.42718" lon="83.69059">
        <ele>2273.66</ele>
        <time>2013-10-31T03:50:11Z</time>
      </trkpt>
      <trkpt lat="28.42717" lon="83.69057">
        <ele>2273.66</ele>
        <time>2013-10-31T03:50:32Z</time>
      </trkpt>
      <trkpt lat="28.42718" lon="83.69057">
        <ele>2273.66</ele>
        <time>2013-10-31T03:50:59Z</time>
      </trkpt>
      <trkpt lat="28.42718" lon="83.69058">
        <ele>2274.14</ele>
        <time>2013-10-31T03:51:25Z</time>
      </trkpt>
      <trkpt lat="28.42718" lon="83.69058">
        <ele>2274.14</ele>
        <time>2013-10-31T03:51:50Z</time>
      </trkpt>
      <trkpt lat="28.42717" lon="83.69059">
        <ele>2274.14</ele>
        <time>2013-10-31T03:52:14Z</time>
      </trkpt>
      <trkpt lat="28.42717" lon="83.69058">
        <ele>2274.62</ele>
        <time>2013-10-31T03:52:48Z</time>
      </trkpt>
      <trkpt lat="28.42716" lon="83.69058">
        <ele>2275.1</ele>
        <time>2013-10-31T03:53:06Z</time>
      </trkpt>
      <trkpt lat="28.42708" lon="83.69057">
        <ele>2275.58</ele>
        <time>2013-10-31T03:53:22Z</time>
      </trkpt>
      <trkpt lat="28.42695" lon="83.69048">
        <ele>2277.02</ele>
        <time>2013-10-31T03:53:38Z</time>
      </trkpt>
      <trkpt lat="28.42688" lon="83.69041">
        <ele>2277.5</ele>
        <time>2013-10-31T03:53:46Z</time>
      </trkpt>
      <trkpt lat="28.4268" lon="83.6903">
        <ele>2276.54</ele>
        <time>2013-10-31T03:53:57Z</time>
      </trkpt>
      <trkpt lat="28.42669" lon="83.6902">
        <ele>2275.1</ele>
        <time>2013-10-31T03:54:11Z</time>
      </trkpt>
      <trkpt lat="28.4266" lon="83.69012">
        <ele>2276.54</ele>
        <time>2013-10-31T03:54:24Z</time>
      </trkpt>
      <trkpt lat="28.42658" lon="83.69006">
        <ele>2278.46</ele>
        <time>2013-10-31T03:54:34Z</time>
      </trkpt>
      <trkpt lat="28.42657" lon="83.69003">
        <ele>2278.94</ele>
        <time>2013-10-31T03:54:37Z</time>
      </trkpt>
      <trkpt lat="28.42653" lon="83.68998">
        <ele>2279.42</ele>
        <time>2013-10-31T03:54:52Z</time>
      </trkpt>
      <trkpt lat="28.42653" lon="83.68989">
        <ele>2281.35</ele>
        <time>2013-10-31T03:55:03Z</time>
      </trkpt>
      <trkpt lat="28.42648" lon="83.68982">
        <ele>2282.79</ele>
        <time>2013-10-31T03:55:14Z</time>
      </trkpt>
      <trkpt lat="28.42646" lon="83.68977">
        <ele>2283.27</ele>
        <time>2013-10-31T03:55:20Z</time>
      </trkpt>
      <trkpt lat="28.42636" lon="83.68972">
        <ele>2284.71</ele>
        <time>2013-10-31T03:55:34Z</time>
      </trkpt>
      <trkpt lat="28.42622" lon="83.68967">
        <ele>2287.59</ele>
        <time>2013-10-31T03:55:52Z</time>
      </trkpt>
      <trkpt lat="28.42606" lon="83.68965">
        <ele>2290</ele>
        <time>2013-10-31T03:56:11Z</time>
      </trkpt>
      <trkpt lat="28.42597" lon="83.68963">
        <ele>2292.4</ele>
        <time>2013-10-31T03:56:28Z</time>
      </trkpt>
      <trkpt lat="28.42591" lon="83.68958">
        <ele>2294.8</ele>
        <time>2013-10-31T03:56:43Z</time>
      </trkpt>
      <trkpt lat="28.4259" lon="83.68956">
        <ele>2295.28</ele>
        <time>2013-10-31T03:56:46Z</time>
      </trkpt>
      <trkpt lat="28.42583" lon="83.68952">
        <ele>2297.69</ele>
        <time>2013-10-31T03:57:00Z</time>
      </trkpt>
      <trkpt lat="28.42586" lon="83.68941">
        <ele>2300.09</ele>
        <time>2013-10-31T03:57:15Z</time>
      </trkpt>
      <trkpt lat="28.42588" lon="83.68931">
        <ele>2302.49</ele>
        <time>2013-10-31T03:57:31Z</time>
      </trkpt>
      <trkpt lat="28.42587" lon="83.68922">
        <ele>2304.9</ele>
        <time>2013-10-31T03:57:44Z</time>
      </trkpt>
      <trkpt lat="28.42588" lon="83.68913">
        <ele>2306.34</ele>
        <time>2013-10-31T03:57:55Z</time>
      </trkpt>
      <trkpt lat="28.42587" lon="83.68902">
        <ele>2308.26</ele>
        <time>2013-10-31T03:58:10Z</time>
      </trkpt>
      <trkpt lat="28.42587" lon="83.68901">
        <ele>2308.26</ele>
        <time>2013-10-31T03:58:12Z</time>
      </trkpt>
      <trkpt lat="28.4259" lon="83.6889">
        <ele>2310.19</ele>
        <time>2013-10-31T03:58:25Z</time>
      </trkpt>
      <trkpt lat="28.42593" lon="83.68878">
        <ele>2312.11</ele>
        <time>2013-10-31T03:58:42Z</time>
      </trkpt>
      <trkpt lat="28.42596" lon="83.68874">
        <ele>2313.55</ele>
        <time>2013-10-31T03:58:56Z</time>
      </trkpt>
      <trkpt lat="28.42596" lon="83.68866">
        <ele>2315.95</ele>
        <time>2013-10-31T03:59:12Z</time>
      </trkpt>
      <trkpt lat="28.42595" lon="83.68863">
        <ele>2316.43</ele>
        <time>2013-10-31T03:59:17Z</time>
      </trkpt>
      <trkpt lat="28.4259" lon="83.68861">
        <ele>2318.84</ele>
        <time>2013-10-31T03:59:32Z</time>
      </trkpt>
      <trkpt lat="28.42585" lon="83.68856">
        <ele>2321.24</ele>
        <time>2013-10-31T03:59:48Z</time>
      </trkpt>
      <trkpt lat="28.4258" lon="83.68857">
        <ele>2323.64</ele>
        <time>2013-10-31T04:00:05Z</time>
      </trkpt>
      <trkpt lat="28.42575" lon="83.68853">
        <ele>2326.05</ele>
        <time>2013-10-31T04:00:22Z</time>
      </trkpt>
      <trkpt lat="28.42568" lon="83.68851">
        <ele>2327.01</ele>
        <time>2013-10-31T04:00:29Z</time>
      </trkpt>
      <trkpt lat="28.42565" lon="83.68847">
        <ele>2329.41</ele>
        <time>2013-10-31T04:00:45Z</time>
      </trkpt>
      <trkpt lat="28.4256" lon="83.68837">
        <ele>2332.78</ele>
        <time>2013-10-31T04:01:04Z</time>
      </trkpt>
      <trkpt lat="28.42555" lon="83.6883">
        <ele>2335.18</ele>
        <time>2013-10-31T04:01:20Z</time>
      </trkpt>
      <trkpt lat="28.42553" lon="83.68825">
        <ele>2337.58</ele>
        <time>2013-10-31T04:01:35Z</time>
      </trkpt>
      <trkpt lat="28.42547" lon="83.68824">
        <ele>2339.99</ele>
        <time>2013-10-31T04:01:48Z</time>
      </trkpt>
      <trkpt lat="28.42544" lon="83.68824">
        <ele>2340.95</ele>
        <time>2013-10-31T04:01:52Z</time>
      </trkpt>
      <trkpt lat="28.42541" lon="83.68823">
        <ele>2341.43</ele>
        <time>2013-10-31T04:02:06Z</time>
      </trkpt>
      <trkpt lat="28.4254" lon="83.68823">
        <ele>2341.43</ele>
        <time>2013-10-31T04:02:38Z</time>
      </trkpt>
      <trkpt lat="28.42539" lon="83.68822">
        <ele>2341.43</ele>
        <time>2013-10-31T04:02:58Z</time>
      </trkpt>
      <trkpt lat="28.4254" lon="83.68821">
        <ele>2341.91</ele>
        <time>2013-10-31T04:03:18Z</time>
      </trkpt>
      <trkpt lat="28.42541" lon="83.68821">
        <ele>2341.91</ele>
        <time>2013-10-31T04:03:32Z</time>
      </trkpt>
      <trkpt lat="28.42541" lon="83.6882">
        <ele>2342.39</ele>
        <time>2013-10-31T04:03:51Z</time>
      </trkpt>
      <trkpt lat="28.42541" lon="83.6882">
        <ele>2342.39</ele>
        <time>2013-10-31T04:04:15Z</time>
      </trkpt>
      <trkpt lat="28.42541" lon="83.68819">
        <ele>2342.87</ele>
        <time>2013-10-31T04:04:45Z</time>
      </trkpt>
      <trkpt lat="28.42542" lon="83.68819">
        <ele>2342.87</ele>
        <time>2013-10-31T04:05:20Z</time>
      </trkpt>
      <trkpt lat="28.42542" lon="83.68819">
        <ele>2343.35</ele>
        <time>2013-10-31T04:05:36Z</time>
      </trkpt>
      <trkpt lat="28.42542" lon="83.68819">
        <ele>2343.35</ele>
        <time>2013-10-31T04:06:08Z</time>
      </trkpt>
      <trkpt lat="28.42541" lon="83.6882">
        <ele>2343.35</ele>
        <time>2013-10-31T04:06:42Z</time>
      </trkpt>
      <trkpt lat="28.42541" lon="83.6882">
        <ele>2343.83</ele>
        <time>2013-10-31T04:07:13Z</time>
      </trkpt>
      <trkpt lat="28.42541" lon="83.6882">
        <ele>2343.83</ele>
        <time>2013-10-31T04:07:42Z</time>
      </trkpt>
      <trkpt lat="28.42541" lon="83.68819">
        <ele>2343.83</ele>
        <time>2013-10-31T04:07:56Z</time>
      </trkpt>
      <trkpt lat="28.4254" lon="83.68818">
        <ele>2344.31</ele>
        <time>2013-10-31T04:08:17Z</time>
      </trkpt>
      <trkpt lat="28.42538" lon="83.6882">
        <ele>2345.27</ele>
        <time>2013-10-31T04:08:39Z</time>
      </trkpt>
      <trkpt lat="28.4254" lon="83.68824">
        <ele>2345.75</ele>
        <time>2013-10-31T04:08:50Z</time>
      </trkpt>
      <trkpt lat="28.42538" lon="83.68833">
        <ele>2347.2</ele>
        <time>2013-10-31T04:08:58Z</time>
      </trkpt>
      <trkpt lat="28.42535" lon="83.68842">
        <ele>2348.16</ele>
        <time>2013-10-31T04:09:06Z</time>
      </trkpt>
      <trkpt lat="28.42532" lon="83.68851">
        <ele>2348.16</ele>
        <time>2013-10-31T04:09:14Z</time>
      </trkpt>
      <trkpt lat="28.42529" lon="83.68855">
        <ele>2348.16</ele>
        <time>2013-10-31T04:09:19Z</time>
      </trkpt>
      <trkpt lat="28.42525" lon="83.68867">
        <ele>2348.64</ele>
        <time>2013-10-31T04:09:31Z</time>
      </trkpt>
      <trkpt lat="28.42523" lon="83.6887">
        <ele>2348.64</ele>
        <time>2013-10-31T04:09:35Z</time>
      </trkpt>
      <trkpt lat="28.42516" lon="83.68877">
        <ele>2348.64</ele>
        <time>2013-10-31T04:09:48Z</time>
      </trkpt>
      <trkpt lat="28.42513" lon="83.68879">
        <ele>2348.16</ele>
        <time>2013-10-31T04:10:00Z</time>
      </trkpt>
      <trkpt lat="28.42502" lon="83.6889">
        <ele>2346.23</ele>
        <time>2013-10-31T04:10:11Z</time>
      </trkpt>
      <trkpt lat="28.42496" lon="83.68896">
        <ele>2344.79</ele>
        <time>2013-10-31T04:10:17Z</time>
      </trkpt>
      <trkpt lat="28.42494" lon="83.68898">
        <ele>2344.31</ele>
        <time>2013-10-31T04:10:20Z</time>
      </trkpt>
      <trkpt lat="28.4249" lon="83.68902">
        <ele>2343.83</ele>
        <time>2013-10-31T04:10:24Z</time>
      </trkpt>
      <trkpt lat="28.42483" lon="83.68907">
        <ele>2342.39</ele>
        <time>2013-10-31T04:10:31Z</time>
      </trkpt>
      <trkpt lat="28.42473" lon="83.68914">
        <ele>2340.95</ele>
        <time>2013-10-31T04:10:42Z</time>
      </trkpt>
      <trkpt lat="28.42464" lon="83.68924">
        <ele>2340.47</ele>
        <time>2013-10-31T04:10:55Z</time>
      </trkpt>
      <trkpt lat="28.42464" lon="83.68925">
        <ele>2340.47</ele>
        <time>2013-10-31T04:10:56Z</time>
      </trkpt>
      <trkpt lat="28.42464" lon="83.68929">
        <ele>2341.43</ele>
        <time>2013-10-31T04:11:01Z</time>
      </trkpt>
      <trkpt lat="28.4247" lon="83.68937">
        <ele>2341.91</ele>
        <time>2013-10-31T04:11:10Z</time>
      </trkpt>
      <trkpt lat="28.42484" lon="83.68945">
        <ele>2342.39</ele>
        <time>2013-10-31T04:11:24Z</time>
      </trkpt>
      <trkpt lat="28.42496" lon="83.68954">
        <ele>2342.39</ele>
        <time>2013-10-31T04:11:36Z</time>
      </trkpt>
      <trkpt lat="28.42501" lon="83.68964">
        <ele>2343.83</ele>
        <time>2013-10-31T04:11:47Z</time>
      </trkpt>
      <trkpt lat="28.42498" lon="83.68971">
        <ele>2345.27</ele>
        <time>2013-10-31T04:11:54Z</time>
      </trkpt>
      <trkpt lat="28.42495" lon="83.6898">
        <ele>2347.2</ele>
        <time>2013-10-31T04:12:07Z</time>
      </trkpt>
      <trkpt lat="28.42494" lon="83.68986">
        <ele>2348.16</ele>
        <time>2013-10-31T04:12:12Z</time>
      </trkpt>
      <trkpt lat="28.42495" lon="83.68992">
        <ele>2348.64</ele>
        <time>2013-10-31T04:12:18Z</time>
      </trkpt>
      <trkpt lat="28.42489" lon="83.68999">
        <ele>2349.12</ele>
        <time>2013-10-31T04:12:25Z</time>
      </trkpt>
      <trkpt lat="28.42478" lon="83.69003">
        <ele>2349.6</ele>
        <time>2013-10-31T04:12:38Z</time>
      </trkpt>
      <trkpt lat="28.42475" lon="83.69005">
        <ele>2348.64</ele>
        <time>2013-10-31T04:12:42Z</time>
      </trkpt>
      <trkpt lat="28.4247" lon="83.69011">
        <ele>2347.2</ele>
        <time>2013-10-31T04:12:50Z</time>
      </trkpt>
      <trkpt lat="28.42464" lon="83.6902">
        <ele>2345.27</ele>
        <time>2013-10-31T04:13:00Z</time>
      </trkpt>
      <trkpt lat="28.42457" lon="83.69032">
        <ele>2342.87</ele>
        <time>2013-10-31T04:13:14Z</time>
      </trkpt>
      <trkpt lat="28.42456" lon="83.69033">
        <ele>2342.39</ele>
        <time>2013-10-31T04:13:27Z</time>
      </trkpt>
      <trkpt lat="28.42452" lon="83.69038">
        <ele>2341.43</ele>
        <time>2013-10-31T04:13:42Z</time>
      </trkpt>
      <trkpt lat="28.42447" lon="83.69048">
        <ele>2340.95</ele>
        <time>2013-10-31T04:13:49Z</time>
      </trkpt>
      <trkpt lat="28.42439" lon="83.69057">
        <ele>2341.43</ele>
        <time>2013-10-31T04:14:02Z</time>
      </trkpt>
      <trkpt lat="28.42432" lon="83.69063">
        <ele>2341.91</ele>
        <time>2013-10-31T04:14:14Z</time>
      </trkpt>
      <trkpt lat="28.4243" lon="83.69064">
        <ele>2342.39</ele>
        <time>2013-10-31T04:14:17Z</time>
      </trkpt>
      <trkpt lat="28.42417" lon="83.69069">
        <ele>2343.83</ele>
        <time>2013-10-31T04:14:31Z</time>
      </trkpt>
      <trkpt lat="28.42406" lon="83.69077">
        <ele>2344.31</ele>
        <time>2013-10-31T04:14:44Z</time>
      </trkpt>
      <trkpt lat="28.42397" lon="83.69086">
        <ele>2344.31</ele>
        <time>2013-10-31T04:14:55Z</time>
      </trkpt>
      <trkpt lat="28.42392" lon="83.69088">
        <ele>2344.31</ele>
        <time>2013-10-31T04:15:00Z</time>
      </trkpt>
      <trkpt lat="28.42382" lon="83.69094">
        <ele>2343.83</ele>
        <time>2013-10-31T04:15:13Z</time>
      </trkpt>
      <trkpt lat="28.42379" lon="83.69094">
        <ele>2343.35</ele>
        <time>2013-10-31T04:15:16Z</time>
      </trkpt>
      <trkpt lat="28.42373" lon="83.69091">
        <ele>2342.87</ele>
        <time>2013-10-31T04:15:23Z</time>
      </trkpt>
      <trkpt lat="28.42366" lon="83.69088">
        <ele>2341.91</ele>
        <time>2013-10-31T04:15:29Z</time>
      </trkpt>
      <trkpt lat="28.42364" lon="83.69087">
        <ele>2341.43</ele>
        <time>2013-10-31T04:15:31Z</time>
      </trkpt>
      <trkpt lat="28.42354" lon="83.69088">
        <ele>2339.99</ele>
        <time>2013-10-31T04:15:43Z</time>
      </trkpt>
      <trkpt lat="28.42349" lon="83.69096">
        <ele>2340.47</ele>
        <time>2013-10-31T04:15:51Z</time>
      </trkpt>
      <trkpt lat="28.42349" lon="83.69103">
        <ele>2340.47</ele>
        <time>2013-10-31T04:15:55Z</time>
      </trkpt>
      <trkpt lat="28.42353" lon="83.69116">
        <ele>2341.43</ele>
        <time>2013-10-31T04:16:09Z</time>
      </trkpt>
      <trkpt lat="28.42353" lon="83.69117">
        <ele>2340.95</ele>
        <time>2013-10-31T04:16:15Z</time>
      </trkpt>
      <trkpt lat="28.42355" lon="83.69125">
        <ele>2340.95</ele>
        <time>2013-10-31T04:16:22Z</time>
      </trkpt>
      <trkpt lat="28.42356" lon="83.69133">
        <ele>2341.43</ele>
        <time>2013-10-31T04:16:28Z</time>
      </trkpt>
      <trkpt lat="28.42358" lon="83.69148">
        <ele>2341.43</ele>
        <time>2013-10-31T04:16:40Z</time>
      </trkpt>
      <trkpt lat="28.42359" lon="83.69156">
        <ele>2341.43</ele>
        <time>2013-10-31T04:16:46Z</time>
      </trkpt>
      <trkpt lat="28.42362" lon="83.69171">
        <ele>2341.43</ele>
        <time>2013-10-31T04:16:58Z</time>
      </trkpt>
      <trkpt lat="28.42365" lon="83.69181">
        <ele>2341.43</ele>
        <time>2013-10-31T04:17:06Z</time>
      </trkpt>
      <trkpt lat="28.42364" lon="83.69193">
        <ele>2343.83</ele>
        <time>2013-10-31T04:17:20Z</time>
      </trkpt>
      <trkpt lat="28.42363" lon="83.69199">
        <ele>2344.79</ele>
        <time>2013-10-31T04:17:26Z</time>
      </trkpt>
      <trkpt lat="28.42362" lon="83.69202">
        <ele>2345.27</ele>
        <time>2013-10-31T04:17:29Z</time>
      </trkpt>
      <trkpt lat="28.42365" lon="83.69214">
        <ele>2346.23</ele>
        <time>2013-10-31T04:17:40Z</time>
      </trkpt>
      <trkpt lat="28.42369" lon="83.69222">
        <ele>2347.68</ele>
        <time>2013-10-31T04:17:51Z</time>
      </trkpt>
      <trkpt lat="28.4237" lon="83.69226">
        <ele>2349.12</ele>
        <time>2013-10-31T04:18:02Z</time>
      </trkpt>
      <trkpt lat="28.42371" lon="83.6923">
        <ele>2349.12</ele>
        <time>2013-10-31T04:18:07Z</time>
      </trkpt>
      <trkpt lat="28.42374" lon="83.69238">
        <ele>2351.04</ele>
        <time>2013-10-31T04:18:17Z</time>
      </trkpt>
      <trkpt lat="28.42378" lon="83.69247">
        <ele>2352.48</ele>
        <time>2013-10-31T04:18:29Z</time>
      </trkpt>
      <trkpt lat="28.42376" lon="83.6925">
        <ele>2353.44</ele>
        <time>2013-10-31T04:18:45Z</time>
      </trkpt>
      <trkpt lat="28.42371" lon="83.69257">
        <ele>2355.85</ele>
        <time>2013-10-31T04:19:01Z</time>
      </trkpt>
      <trkpt lat="28.4237" lon="83.69258">
        <ele>2357.29</ele>
        <time>2013-10-31T04:19:22Z</time>
      </trkpt>
      <trkpt lat="28.42371" lon="83.69272">
        <ele>2359.21</ele>
        <time>2013-10-31T04:19:38Z</time>
      </trkpt>
      <trkpt lat="28.42371" lon="83.69282">
        <ele>2362.1</ele>
        <time>2013-10-31T04:19:54Z</time>
      </trkpt>
      <trkpt lat="28.42372" lon="83.69291">
        <ele>2364.5</ele>
        <time>2013-10-31T04:20:07Z</time>
      </trkpt>
      <trkpt lat="28.42375" lon="83.69297">
        <ele>2365.94</ele>
        <time>2013-10-31T04:20:20Z</time>
      </trkpt>
      <trkpt lat="28.42379" lon="83.69303">
        <ele>2367.38</ele>
        <time>2013-10-31T04:20:34Z</time>
      </trkpt>
      <trkpt lat="28.42382" lon="83.69311">
        <ele>2369.31</ele>
        <time>2013-10-31T04:20:52Z</time>
      </trkpt>
      <trkpt lat="28.42385" lon="83.69318">
        <ele>2371.71</ele>
        <time>2013-10-31T04:21:09Z</time>
      </trkpt>
      <trkpt lat="28.42386" lon="83.69327">
        <ele>2372.19</ele>
        <time>2013-10-31T04:21:18Z</time>
      </trkpt>
      <trkpt lat="28.42387" lon="83.69338">
        <ele>2373.15</ele>
        <time>2013-10-31T04:21:29Z</time>
      </trkpt>
      <trkpt lat="28.42383" lon="83.6935">
        <ele>2374.11</ele>
        <time>2013-10-31T04:21:42Z</time>
      </trkpt>
      <trkpt lat="28.42378" lon="83.69359">
        <ele>2374.59</ele>
        <time>2013-10-31T04:21:56Z</time>
      </trkpt>
      <trkpt lat="28.42374" lon="83.6937">
        <ele>2375.07</ele>
        <time>2013-10-31T04:22:09Z</time>
      </trkpt>
      <trkpt lat="28.42375" lon="83.69383">
        <ele>2376.04</ele>
        <time>2013-10-31T04:22:22Z</time>
      </trkpt>
      <trkpt lat="28.42373" lon="83.69388">
        <ele>2376.52</ele>
        <time>2013-10-31T04:22:28Z</time>
      </trkpt>
      <trkpt lat="28.42362" lon="83.69401">
        <ele>2377.48</ele>
        <time>2013-10-31T04:22:44Z</time>
      </trkpt>
      <trkpt lat="28.4236" lon="83.69411">
        <ele>2379.4</ele>
        <time>2013-10-31T04:22:56Z</time>
      </trkpt>
      <trkpt lat="28.42357" lon="83.69422">
        <ele>2380.36</ele>
        <time>2013-10-31T04:23:09Z</time>
      </trkpt>
      <trkpt lat="28.42353" lon="83.69434">
        <ele>2379.88</ele>
        <time>2013-10-31T04:23:21Z</time>
      </trkpt>
      <trkpt lat="28.42352" lon="83.69438">
        <ele>2380.36</ele>
        <time>2013-10-31T04:23:25Z</time>
      </trkpt>
      <trkpt lat="28.42349" lon="83.69446">
        <ele>2379.88</ele>
        <time>2013-10-31T04:23:34Z</time>
      </trkpt>
      <trkpt lat="28.42338" lon="83.69454">
        <ele>2379.88</ele>
        <time>2013-10-31T04:23:48Z</time>
      </trkpt>
      <trkpt lat="28.42327" lon="83.69455">
        <ele>2380.84</ele>
        <time>2013-10-31T04:24:03Z</time>
      </trkpt>
      <trkpt lat="28.42325" lon="83.69455">
        <ele>2380.84</ele>
        <time>2013-10-31T04:24:06Z</time>
      </trkpt>
      <trkpt lat="28.42309" lon="83.69459">
        <ele>2381.8</ele>
        <time>2013-10-31T04:24:21Z</time>
      </trkpt>
      <trkpt lat="28.42294" lon="83.69457">
        <ele>2382.28</ele>
        <time>2013-10-31T04:24:35Z</time>
      </trkpt>
      <trkpt lat="28.42278" lon="83.69459">
        <ele>2383.25</ele>
        <time>2013-10-31T04:24:50Z</time>
      </trkpt>
      <trkpt lat="28.42276" lon="83.69461">
        <ele>2383.73</ele>
        <time>2013-10-31T04:24:53Z</time>
      </trkpt>
      <trkpt lat="28.42273" lon="83.69469">
        <ele>2384.69</ele>
        <time>2013-10-31T04:25:00Z</time>
      </trkpt>
      <trkpt lat="28.42263" lon="83.69482">
        <ele>2385.17</ele>
        <time>2013-10-31T04:25:14Z</time>
      </trkpt>
      <trkpt lat="28.42258" lon="83.6949">
        <ele>2385.65</ele>
        <time>2013-10-31T04:25:23Z</time>
      </trkpt>
      <trkpt lat="28.42257" lon="83.69495">
        <ele>2385.17</ele>
        <time>2013-10-31T04:25:28Z</time>
      </trkpt>
      <trkpt lat="28.42256" lon="83.69503">
        <ele>2386.13</ele>
        <time>2013-10-31T04:25:35Z</time>
      </trkpt>
      <trkpt lat="28.42256" lon="83.69505">
        <ele>2386.61</ele>
        <time>2013-10-31T04:25:37Z</time>
      </trkpt>
      <trkpt lat="28.42256" lon="83.69513">
        <ele>2387.09</ele>
        <time>2013-10-31T04:25:49Z</time>
      </trkpt>
      <trkpt lat="28.42257" lon="83.69513">
        <ele>2387.09</ele>
        <time>2013-10-31T04:26:06Z</time>
      </trkpt>
      <trkpt lat="28.42258" lon="83.69512">
        <ele>2387.09</ele>
        <time>2013-10-31T04:26:33Z</time>
      </trkpt>
      <trkpt lat="28.42257" lon="83.69513">
        <ele>2387.09</ele>
        <time>2013-10-31T04:26:50Z</time>
      </trkpt>
      <trkpt lat="28.42256" lon="83.69513">
        <ele>2387.09</ele>
        <time>2013-10-31T04:27:08Z</time>
      </trkpt>
      <trkpt lat="28.42257" lon="83.69513">
        <ele>2387.09</ele>
        <time>2013-10-31T04:27:35Z</time>
      </trkpt>
      <trkpt lat="28.42257" lon="83.69513">
        <ele>2387.09</ele>
        <time>2013-10-31T04:28:02Z</time>
      </trkpt>
      <trkpt lat="28.42257" lon="83.69513">
        <ele>2387.09</ele>
        <time>2013-10-31T04:28:26Z</time>
      </trkpt>
      <trkpt lat="28.42257" lon="83.69512">
        <ele>2387.57</ele>
        <time>2013-10-31T04:28:44Z</time>
      </trkpt>
      <trkpt lat="28.42257" lon="83.69512">
        <ele>2387.57</ele>
        <time>2013-10-31T04:29:11Z</time>
      </trkpt>
      <trkpt lat="28.42257" lon="83.69512">
        <ele>2387.09</ele>
        <time>2013-10-31T04:29:38Z</time>
      </trkpt>
      <trkpt lat="28.42258" lon="83.69512">
        <ele>2387.09</ele>
        <time>2013-10-31T04:30:06Z</time>
      </trkpt>
      <trkpt lat="28.42257" lon="83.69512">
        <ele>2387.57</ele>
        <time>2013-10-31T04:30:32Z</time>
      </trkpt>
      <trkpt lat="28.42258" lon="83.69511">
        <ele>2387.57</ele>
        <time>2013-10-31T04:30:50Z</time>
      </trkpt>
      <trkpt lat="28.42258" lon="83.69512">
        <ele>2387.57</ele>
        <time>2013-10-31T04:31:09Z</time>
      </trkpt>
      <trkpt lat="28.42258" lon="83.69512">
        <ele>2387.57</ele>
        <time>2013-10-31T04:31:29Z</time>
      </trkpt>
      <trkpt lat="28.42257" lon="83.69513">
        <ele>2387.57</ele>
        <time>2013-10-31T04:31:50Z</time>
      </trkpt>
      <trkpt lat="28.42257" lon="83.69513">
        <ele>2387.57</ele>
        <time>2013-10-31T04:32:16Z</time>
      </trkpt>
      <trkpt lat="28.42257" lon="83.69513">
        <ele>2388.05</ele>
        <time>2013-10-31T04:32:47Z</time>
      </trkpt>
      <trkpt lat="28.42257" lon="83.69513">
        <ele>2387.57</ele>
        <time>2013-10-31T04:33:07Z</time>
      </trkpt>
      <trkpt lat="28.42256" lon="83.69514">
        <ele>2388.05</ele>
        <time>2013-10-31T04:33:32Z</time>
      </trkpt>
      <trkpt lat="28.42256" lon="83.69513">
        <ele>2388.05</ele>
        <time>2013-10-31T04:33:49Z</time>
      </trkpt>
      <trkpt lat="28.42255" lon="83.69513">
        <ele>2388.05</ele>
        <time>2013-10-31T04:34:15Z</time>
      </trkpt>
      <trkpt lat="28.42256" lon="83.69514">
        <ele>2388.05</ele>
        <time>2013-10-31T04:34:44Z</time>
      </trkpt>
      <trkpt lat="28.42255" lon="83.69514">
        <ele>2388.05</ele>
        <time>2013-10-31T04:35:07Z</time>
      </trkpt>
      <trkpt lat="28.42255" lon="83.69513">
        <ele>2388.05</ele>
        <time>2013-10-31T04:35:24Z</time>
      </trkpt>
      <trkpt lat="28.42254" lon="83.69513">
        <ele>2388.05</ele>
        <time>2013-10-31T04:35:42Z</time>
      </trkpt>
      <trkpt lat="28.42255" lon="83.69514">
        <ele>2388.53</ele>
        <time>2013-10-31T04:36:02Z</time>
      </trkpt>
      <trkpt lat="28.42254" lon="83.69514">
        <ele>2388.53</ele>
        <time>2013-10-31T04:36:29Z</time>
      </trkpt>
      <trkpt lat="28.42254" lon="83.69514">
        <ele>2388.53</ele>
        <time>2013-10-31T04:36:30Z</time>
      </trkpt>
      <trkpt lat="28.42254" lon="83.69517">
        <ele>2389.01</ele>
        <time>2013-10-31T04:36:44Z</time>
      </trkpt>
      <trkpt lat="28.42254" lon="83.69518">
        <ele>2389.01</ele>
        <time>2013-10-31T04:36:45Z</time>
      </trkpt>
      <trkpt lat="28.42258" lon="83.69529">
        <ele>2390.46</ele>
        <time>2013-10-31T04:36:57Z</time>
      </trkpt>
      <trkpt lat="28.42257" lon="83.69537">
        <ele>2391.9</ele>
        <time>2013-10-31T04:37:08Z</time>
      </trkpt>
      <trkpt lat="28.42253" lon="83.69545">
        <ele>2394.3</ele>
        <time>2013-10-31T04:37:20Z</time>
      </trkpt>
      <trkpt lat="28.42247" lon="83.69552">
        <ele>2396.22</ele>
        <time>2013-10-31T04:37:34Z</time>
      </trkpt>
      <trkpt lat="28.42242" lon="83.69557">
        <ele>2397.67</ele>
        <time>2013-10-31T04:37:45Z</time>
      </trkpt>
      <trkpt lat="28.42238" lon="83.69562">
        <ele>2398.63</ele>
        <time>2013-10-31T04:37:54Z</time>
      </trkpt>
      <trkpt lat="28.42233" lon="83.69567">
        <ele>2400.07</ele>
        <time>2013-10-31T04:38:02Z</time>
      </trkpt>
      <trkpt lat="28.42227" lon="83.69572">
        <ele>2401.03</ele>
        <time>2013-10-31T04:38:13Z</time>
      </trkpt>
      <trkpt lat="28.42227" lon="83.69572">
        <ele>2401.03</ele>
        <time>2013-10-31T04:38:20Z</time>
      </trkpt>
      <trkpt lat="28.42225" lon="83.69569">
        <ele>2401.51</ele>
        <time>2013-10-31T04:38:32Z</time>
      </trkpt>
      <trkpt lat="28.42227" lon="83.69571">
        <ele>2401.03</ele>
        <time>2013-10-31T04:38:45Z</time>
      </trkpt>
      <trkpt lat="28.42227" lon="83.69571">
        <ele>2401.51</ele>
        <time>2013-10-31T04:39:04Z</time>
      </trkpt>
      <trkpt lat="28.42216" lon="83.69575">
        <ele>2402.47</ele>
        <time>2013-10-31T04:39:17Z</time>
      </trkpt>
      <trkpt lat="28.42215" lon="83.69574">
        <ele>2402.95</ele>
        <time>2013-10-31T04:39:33Z</time>
      </trkpt>
      <trkpt lat="28.42212" lon="83.69578">
        <ele>2403.43</ele>
        <time>2013-10-31T04:39:51Z</time>
      </trkpt>
      <trkpt lat="28.42212" lon="83.69578">
        <ele>2403.91</ele>
        <time>2013-10-31T04:40:22Z</time>
      </trkpt>
      <trkpt lat="28.42207" lon="83.69577">
        <ele>2404.39</ele>
        <time>2013-10-31T04:40:49Z</time>
      </trkpt>
      <trkpt lat="28.42203" lon="83.69577">
        <ele>2405.36</ele>
        <time>2013-10-31T04:41:08Z</time>
      </trkpt>
      <trkpt lat="28.42197" lon="83.69578">
        <ele>2405.84</ele>
        <time>2013-10-31T04:41:20Z</time>
      </trkpt>
      <trkpt lat="28.42192" lon="83.69578">
        <ele>2405.84</ele>
        <time>2013-10-31T04:41:36Z</time>
      </trkpt>
      <trkpt lat="28.42192" lon="83.69576">
        <ele>2406.32</ele>
        <time>2013-10-31T04:42:00Z</time>
      </trkpt>
      <trkpt lat="28.42192" lon="83.69577">
        <ele>2406.32</ele>
        <time>2013-10-31T04:42:25Z</time>
      </trkpt>
      <trkpt lat="28.4219" lon="83.69575">
        <ele>2406.32</ele>
        <time>2013-10-31T04:42:43Z</time>
      </trkpt>
      <trkpt lat="28.42181" lon="83.69581">
        <ele>2407.76</ele>
        <time>2013-10-31T04:42:56Z</time>
      </trkpt>
      <trkpt lat="28.42174" lon="83.69589">
        <ele>2409.2</ele>
        <time>2013-10-31T04:43:08Z</time>
      </trkpt>
      <trkpt lat="28.42171" lon="83.69596">
        <ele>2411.12</ele>
        <time>2013-10-31T04:43:19Z</time>
      </trkpt>
      <trkpt lat="28.42167" lon="83.69604">
        <ele>2412.09</ele>
        <time>2013-10-31T04:43:29Z</time>
      </trkpt>
      <trkpt lat="28.42162" lon="83.69606">
        <ele>2414.49</ele>
        <time>2013-10-31T04:43:42Z</time>
      </trkpt>
      <trkpt lat="28.42156" lon="83.69604">
        <ele>2416.41</ele>
        <time>2013-10-31T04:43:53Z</time>
      </trkpt>
      <trkpt lat="28.42142" lon="83.69605">
        <ele>2418.81</ele>
        <time>2013-10-31T04:44:08Z</time>
      </trkpt>
      <trkpt lat="28.42131" lon="83.69604">
        <ele>2421.22</ele>
        <time>2013-10-31T04:44:25Z</time>
      </trkpt>
      <trkpt lat="28.42119" lon="83.69602">
        <ele>2423.14</ele>
        <time>2013-10-31T04:44:40Z</time>
      </trkpt>
      <trkpt lat="28.4211" lon="83.69602">
        <ele>2424.58</ele>
        <time>2013-10-31T04:44:53Z</time>
      </trkpt>
      <trkpt lat="28.42108" lon="83.69602">
        <ele>2425.06</ele>
        <time>2013-10-31T04:44:57Z</time>
      </trkpt>
      <trkpt lat="28.42095" lon="83.69606">
        <ele>2426.02</ele>
        <time>2013-10-31T04:45:10Z</time>
      </trkpt>
      <trkpt lat="28.42083" lon="83.69606">
        <ele>2426.99</ele>
        <time>2013-10-31T04:45:22Z</time>
      </trkpt>
      <trkpt lat="28.42072" lon="83.69609">
        <ele>2427.47</ele>
        <time>2013-10-31T04:45:35Z</time>
      </trkpt>
      <trkpt lat="28.42059" lon="83.69612">
        <ele>2427.95</ele>
        <time>2013-10-31T04:45:48Z</time>
      </trkpt>
      <trkpt lat="28.42056" lon="83.69616">
        <ele>2427.95</ele>
        <time>2013-10-31T04:45:56Z</time>
      </trkpt>
      <trkpt lat="28.42057" lon="83.69623">
        <ele>2430.35</ele>
        <time>2013-10-31T04:46:09Z</time>
      </trkpt>
      <trkpt lat="28.42056" lon="83.69629">
        <ele>2432.27</ele>
        <time>2013-10-31T04:46:21Z</time>
      </trkpt>
      <trkpt lat="28.42056" lon="83.69635">
        <ele>2433.23</ele>
        <time>2013-10-31T04:46:32Z</time>
      </trkpt>
      <trkpt lat="28.42055" lon="83.69642">
        <ele>2435.64</ele>
        <time>2013-10-31T04:46:44Z</time>
      </trkpt>
      <trkpt lat="28.42055" lon="83.69647">
        <ele>2435.64</ele>
        <time>2013-10-31T04:46:48Z</time>
      </trkpt>
      <trkpt lat="28.42055" lon="83.69649">
        <ele>2435.64</ele>
        <time>2013-10-31T04:46:50Z</time>
      </trkpt>
      <trkpt lat="28.42055" lon="83.69657">
        <ele>2435.16</ele>
        <time>2013-10-31T04:46:57Z</time>
      </trkpt>
      <trkpt lat="28.42054" lon="83.69663">
        <ele>2434.68</ele>
        <time>2013-10-31T04:47:02Z</time>
      </trkpt>
      <trkpt lat="28.42053" lon="83.69671">
        <ele>2434.68</ele>
        <time>2013-10-31T04:47:09Z</time>
      </trkpt>
      <trkpt lat="28.42047" lon="83.69679">
        <ele>2436.12</ele>
        <time>2013-10-31T04:47:19Z</time>
      </trkpt>
      <trkpt lat="28.42047" lon="83.6968">
        <ele>2436.12</ele>
        <time>2013-10-31T04:47:20Z</time>
      </trkpt>
      <trkpt lat="28.42039" lon="83.69685">
        <ele>2438.04</ele>
        <time>2013-10-31T04:47:32Z</time>
      </trkpt>
      <trkpt lat="28.42028" lon="83.6969">
        <ele>2439</ele>
        <time>2013-10-31T04:47:44Z</time>
      </trkpt>
      <trkpt lat="28.42027" lon="83.6969">
        <ele>2439.48</ele>
        <time>2013-10-31T04:47:46Z</time>
      </trkpt>
      <trkpt lat="28.42018" lon="83.69697">
        <ele>2441.41</ele>
        <time>2013-10-31T04:48:00Z</time>
      </trkpt>
      <trkpt lat="28.42014" lon="83.69698">
        <ele>2442.37</ele>
        <time>2013-10-31T04:48:13Z</time>
      </trkpt>
      <trkpt lat="28.42011" lon="83.69704">
        <ele>2443.33</ele>
        <time>2013-10-31T04:48:24Z</time>
      </trkpt>
      <trkpt lat="28.42007" lon="83.69709">
        <ele>2446.21</ele>
        <time>2013-10-31T04:48:39Z</time>
      </trkpt>
      <trkpt lat="28.42006" lon="83.69709">
        <ele>2446.21</ele>
        <time>2013-10-31T04:48:40Z</time>
      </trkpt>
      <trkpt lat="28.42002" lon="83.69716">
        <ele>2448.13</ele>
        <time>2013-10-31T04:48:53Z</time>
      </trkpt>
      <trkpt lat="28.41999" lon="83.69719">
        <ele>2449.58</ele>
        <time>2013-10-31T04:49:03Z</time>
      </trkpt>
      <trkpt lat="28.41994" lon="83.69722">
        <ele>2451.5</ele>
        <time>2013-10-31T04:49:17Z</time>
      </trkpt>
      <trkpt lat="28.41987" lon="83.69726">
        <ele>2453.42</ele>
        <time>2013-10-31T04:49:31Z</time>
      </trkpt>
      <trkpt lat="28.41978" lon="83.69728">
        <ele>2455.82</ele>
        <time>2013-10-31T04:49:44Z</time>
      </trkpt>
      <trkpt lat="28.41969" lon="83.69729">
        <ele>2457.75</ele>
        <time>2013-10-31T04:49:56Z</time>
      </trkpt>
      <trkpt lat="28.41964" lon="83.6973">
        <ele>2460.15</ele>
        <time>2013-10-31T04:50:10Z</time>
      </trkpt>
      <trkpt lat="28.41953" lon="83.69731">
        <ele>2462.07</ele>
        <time>2013-10-31T04:50:26Z</time>
      </trkpt>
      <trkpt lat="28.41942" lon="83.69732">
        <ele>2464</ele>
        <time>2013-10-31T04:50:39Z</time>
      </trkpt>
      <trkpt lat="28.41934" lon="83.69736">
        <ele>2464.96</ele>
        <time>2013-10-31T04:50:50Z</time>
      </trkpt>
      <trkpt lat="28.41926" lon="83.69739">
        <ele>2464.96</ele>
        <time>2013-10-31T04:50:59Z</time>
      </trkpt>
      <trkpt lat="28.4192" lon="83.69746">
        <ele>2466.4</ele>
        <time>2013-10-31T04:51:11Z</time>
      </trkpt>
      <trkpt lat="28.41912" lon="83.69752">
        <ele>2467.36</ele>
        <time>2013-10-31T04:51:23Z</time>
      </trkpt>
      <trkpt lat="28.41909" lon="83.69755">
        <ele>2468.32</ele>
        <time>2013-10-31T04:51:28Z</time>
      </trkpt>
      <trkpt lat="28.41906" lon="83.69764">
        <ele>2470.24</ele>
        <time>2013-10-31T04:51:39Z</time>
      </trkpt>
      <trkpt lat="28.41903" lon="83.69769">
        <ele>2471.21</ele>
        <time>2013-10-31T04:51:50Z</time>
      </trkpt>
      <trkpt lat="28.41898" lon="83.69774">
        <ele>2472.65</ele>
        <time>2013-10-31T04:51:59Z</time>
      </trkpt>
      <trkpt lat="28.41893" lon="83.69778">
        <ele>2474.09</ele>
        <time>2013-10-31T04:52:11Z</time>
      </trkpt>
      <trkpt lat="28.41891" lon="83.69782">
        <ele>2476.49</ele>
        <time>2013-10-31T04:52:23Z</time>
      </trkpt>
      <trkpt lat="28.41883" lon="83.69787">
        <ele>2477.45</ele>
        <time>2013-10-31T04:52:36Z</time>
      </trkpt>
      <trkpt lat="28.41878" lon="83.69789">
        <ele>2479.86</ele>
        <time>2013-10-31T04:52:48Z</time>
      </trkpt>
      <trkpt lat="28.41872" lon="83.69793">
        <ele>2482.26</ele>
        <time>2013-10-31T04:53:00Z</time>
      </trkpt>
      <trkpt lat="28.41873" lon="83.69797">
        <ele>2482.74</ele>
        <time>2013-10-31T04:53:12Z</time>
      </trkpt>
      <trkpt lat="28.41872" lon="83.69798">
        <ele>2482.74</ele>
        <time>2013-10-31T04:53:43Z</time>
      </trkpt>
      <trkpt lat="28.41871" lon="83.69797">
        <ele>2482.74</ele>
        <time>2013-10-31T04:54:02Z</time>
      </trkpt>
      <trkpt lat="28.41871" lon="83.69797">
        <ele>2482.74</ele>
        <time>2013-10-31T04:54:17Z</time>
      </trkpt>
      <trkpt lat="28.4187" lon="83.69797">
        <ele>2482.26</ele>
        <time>2013-10-31T04:54:33Z</time>
      </trkpt>
      <trkpt lat="28.41868" lon="83.69795">
        <ele>2482.74</ele>
        <time>2013-10-31T04:54:55Z</time>
      </trkpt>
      <trkpt lat="28.41867" lon="83.69795">
        <ele>2486.11</ele>
        <time>2013-10-31T04:54:59Z</time>
      </trkpt>
      <trkpt lat="28.41866" lon="83.69793">
        <ele>2483.22</ele>
        <time>2013-10-31T04:55:23Z</time>
      </trkpt>
      <trkpt lat="28.41866" lon="83.69793">
        <ele>2483.22</ele>
        <time>2013-10-31T04:55:47Z</time>
      </trkpt>
      <trkpt lat="28.41866" lon="83.69794">
        <ele>2483.22</ele>
        <time>2013-10-31T04:56:12Z</time>
      </trkpt>
      <trkpt lat="28.41865" lon="83.69794">
        <ele>2483.22</ele>
        <time>2013-10-31T04:56:36Z</time>
      </trkpt>
      <trkpt lat="28.41866" lon="83.69794">
        <ele>2483.22</ele>
        <time>2013-10-31T04:56:57Z</time>
      </trkpt>
      <trkpt lat="28.41867" lon="83.69794">
        <ele>2483.22</ele>
        <time>2013-10-31T04:57:12Z</time>
      </trkpt>
      <trkpt lat="28.41869" lon="83.69794">
        <ele>2483.22</ele>
        <time>2013-10-31T04:57:40Z</time>
      </trkpt>
      <trkpt lat="28.41868" lon="83.69796">
        <ele>2483.22</ele>
        <time>2013-10-31T04:58:08Z</time>
      </trkpt>
      <trkpt lat="28.41869" lon="83.69797">
        <ele>2482.74</ele>
        <time>2013-10-31T04:58:20Z</time>
      </trkpt>
      <trkpt lat="28.41871" lon="83.69797">
        <ele>2482.74</ele>
        <time>2013-10-31T04:58:39Z</time>
      </trkpt>
      <trkpt lat="28.41872" lon="83.69797">
        <ele>2482.74</ele>
        <time>2013-10-31T04:58:57Z</time>
      </trkpt>
      <trkpt lat="28.41871" lon="83.69798">
        <ele>2482.26</ele>
        <time>2013-10-31T04:59:12Z</time>
      </trkpt>
      <trkpt lat="28.41867" lon="83.698">
        <ele>2482.26</ele>
        <time>2013-10-31T04:59:25Z</time>
      </trkpt>
      <trkpt lat="28.41863" lon="83.698">
        <ele>2484.66</ele>
        <time>2013-10-31T04:59:40Z</time>
      </trkpt>
      <trkpt lat="28.41852" lon="83.69801">
        <ele>2487.07</ele>
        <time>2013-10-31T04:59:56Z</time>
      </trkpt>
      <trkpt lat="28.41848" lon="83.69801">
        <ele>2488.51</ele>
        <time>2013-10-31T05:00:08Z</time>
      </trkpt>
      <trkpt lat="28.41843" lon="83.69806">
        <ele>2489.95</ele>
        <time>2013-10-31T05:00:17Z</time>
      </trkpt>
      <trkpt lat="28.41842" lon="83.6981">
        <ele>2490.43</ele>
        <time>2013-10-31T05:00:20Z</time>
      </trkpt>
      <trkpt lat="28.41835" lon="83.69816">
        <ele>2492.36</ele>
        <time>2013-10-31T05:00:34Z</time>
      </trkpt>
      <trkpt lat="28.4183" lon="83.69819">
        <ele>2494.28</ele>
        <time>2013-10-31T05:00:44Z</time>
      </trkpt>
      <trkpt lat="28.4182" lon="83.69823">
        <ele>2496.2</ele>
        <time>2013-10-31T05:00:56Z</time>
      </trkpt>
      <trkpt lat="28.41819" lon="83.6983">
        <ele>2497.64</ele>
        <time>2013-10-31T05:01:06Z</time>
      </trkpt>
      <trkpt lat="28.41816" lon="83.69837">
        <ele>2499.57</ele>
        <time>2013-10-31T05:01:20Z</time>
      </trkpt>
      <trkpt lat="28.41811" lon="83.69842">
        <ele>2501.01</ele>
        <time>2013-10-31T05:01:32Z</time>
      </trkpt>
      <trkpt lat="28.41805" lon="83.69847">
        <ele>2502.93</ele>
        <time>2013-10-31T05:01:47Z</time>
      </trkpt>
      <trkpt lat="28.41797" lon="83.69851">
        <ele>2505.81</ele>
        <time>2013-10-31T05:02:03Z</time>
      </trkpt>
      <trkpt lat="28.41788" lon="83.69856">
        <ele>2508.22</ele>
        <time>2013-10-31T05:02:21Z</time>
      </trkpt>
      <trkpt lat="28.4178" lon="83.6986">
        <ele>2510.14</ele>
        <time>2013-10-31T05:02:35Z</time>
      </trkpt>
      <trkpt lat="28.41772" lon="83.69859">
        <ele>2511.58</ele>
        <time>2013-10-31T05:02:47Z</time>
      </trkpt>
      <trkpt lat="28.41769" lon="83.69858">
        <ele>2513.5</ele>
        <time>2013-10-31T05:02:57Z</time>
      </trkpt>
      <trkpt lat="28.41762" lon="83.6986">
        <ele>2515.91</ele>
        <time>2013-10-31T05:03:09Z</time>
      </trkpt>
      <trkpt lat="28.41761" lon="83.6986">
        <ele>2515.43</ele>
        <time>2013-10-31T05:03:10Z</time>
      </trkpt>
      <trkpt lat="28.41753" lon="83.6986">
        <ele>2516.87</ele>
        <time>2013-10-31T05:03:22Z</time>
      </trkpt>
      <trkpt lat="28.41744" lon="83.69861">
        <ele>2518.31</ele>
        <time>2013-10-31T05:03:36Z</time>
      </trkpt>
      <trkpt lat="28.41735" lon="83.69861">
        <ele>2520.23</ele>
        <time>2013-10-31T05:03:49Z</time>
      </trkpt>
      <trkpt lat="28.41724" lon="83.69859">
        <ele>2520.71</ele>
        <time>2013-10-31T05:04:04Z</time>
      </trkpt>
      <trkpt lat="28.4171" lon="83.69855">
        <ele>2520.71</ele>
        <time>2013-10-31T05:04:20Z</time>
      </trkpt>
      <trkpt lat="28.41699" lon="83.6985">
        <ele>2519.75</ele>
        <time>2013-10-31T05:04:33Z</time>
      </trkpt>
      <trkpt lat="28.41692" lon="83.69852">
        <ele>2519.75</ele>
        <time>2013-10-31T05:04:43Z</time>
      </trkpt>
      <trkpt lat="28.41683" lon="83.69858">
        <ele>2520.71</ele>
        <time>2013-10-31T05:04:55Z</time>
      </trkpt>
      <trkpt lat="28.41675" lon="83.69861">
        <ele>2521.68</ele>
        <time>2013-10-31T05:05:07Z</time>
      </trkpt>
      <trkpt lat="28.41663" lon="83.69866">
        <ele>2523.12</ele>
        <time>2013-10-31T05:05:21Z</time>
      </trkpt>
      <trkpt lat="28.4166" lon="83.69867">
        <ele>2523.12</ele>
        <time>2013-10-31T05:05:24Z</time>
      </trkpt>
      <trkpt lat="28.41645" lon="83.69874">
        <ele>2522.64</ele>
        <time>2013-10-31T05:05:38Z</time>
      </trkpt>
      <trkpt lat="28.41643" lon="83.69875">
        <ele>2522.64</ele>
        <time>2013-10-31T05:05:40Z</time>
      </trkpt>
      <trkpt lat="28.41631" lon="83.69884">
        <ele>2523.12</ele>
        <time>2013-10-31T05:05:52Z</time>
      </trkpt>
      <trkpt lat="28.41619" lon="83.69891">
        <ele>2524.08</ele>
        <time>2013-10-31T05:06:04Z</time>
      </trkpt>
      <trkpt lat="28.41609" lon="83.69895">
        <ele>2523.6</ele>
        <time>2013-10-31T05:06:14Z</time>
      </trkpt>
      <trkpt lat="28.41604" lon="83.69898">
        <ele>2523.12</ele>
        <time>2013-10-31T05:06:19Z</time>
      </trkpt>
      <trkpt lat="28.41592" lon="83.69905">
        <ele>2522.64</ele>
        <time>2013-10-31T05:06:30Z</time>
      </trkpt>
      <trkpt lat="28.41588" lon="83.69908">
        <ele>2521.19</ele>
        <time>2013-10-31T05:06:46Z</time>
      </trkpt>
      <trkpt lat="28.41589" lon="83.69909">
        <ele>2521.68</ele>
        <time>2013-10-31T05:06:48Z</time>
      </trkpt>
      <trkpt lat="28.41595" lon="83.69918">
        <ele>2523.6</ele>
        <time>2013-10-31T05:07:00Z</time>
      </trkpt>
      <trkpt lat="28.41596" lon="83.6992">
        <ele>2523.6</ele>
        <time>2013-10-31T05:07:03Z</time>
      </trkpt>
      <trkpt lat="28.41606" lon="83.69922">
        <ele>2526</ele>
        <time>2013-10-31T05:07:17Z</time>
      </trkpt>
      <trkpt lat="28.41606" lon="83.69931">
        <ele>2527.44</ele>
        <time>2013-10-31T05:07:28Z</time>
      </trkpt>
      <trkpt lat="28.41607" lon="83.6994">
        <ele>2529.85</ele>
        <time>2013-10-31T05:07:40Z</time>
      </trkpt>
      <trkpt lat="28.41604" lon="83.69944">
        <ele>2531.29</ele>
        <time>2013-10-31T05:07:52Z</time>
      </trkpt>
      <trkpt lat="28.41603" lon="83.69945">
        <ele>2531.29</ele>
        <time>2013-10-31T05:08:13Z</time>
      </trkpt>
      <trkpt lat="28.41603" lon="83.69946">
        <ele>2531.77</ele>
        <time>2013-10-31T05:08:28Z</time>
      </trkpt>
      <trkpt lat="28.41602" lon="83.69947">
        <ele>2531.77</ele>
        <time>2013-10-31T05:08:52Z</time>
      </trkpt>
      <trkpt lat="28.41603" lon="83.69946">
        <ele>2531.29</ele>
        <time>2013-10-31T05:09:14Z</time>
      </trkpt>
      <trkpt lat="28.41604" lon="83.69946">
        <ele>2531.29</ele>
        <time>2013-10-31T05:09:36Z</time>
      </trkpt>
      <trkpt lat="28.41604" lon="83.69946">
        <ele>2531.29</ele>
        <time>2013-10-31T05:10:08Z</time>
      </trkpt>
      <trkpt lat="28.41604" lon="83.69946">
        <ele>2531.77</ele>
        <time>2013-10-31T05:10:37Z</time>
      </trkpt>
      <trkpt lat="28.41605" lon="83.69946">
        <ele>2532.25</ele>
        <time>2013-10-31T05:11:07Z</time>
      </trkpt>
      <trkpt lat="28.41605" lon="83.69946">
        <ele>2532.25</ele>
        <time>2013-10-31T05:11:33Z</time>
      </trkpt>
      <trkpt lat="28.41604" lon="83.69946">
        <ele>2532.73</ele>
        <time>2013-10-31T05:11:56Z</time>
      </trkpt>
      <trkpt lat="28.41604" lon="83.69947">
        <ele>2532.25</ele>
        <time>2013-10-31T05:12:21Z</time>
      </trkpt>
      <trkpt lat="28.41604" lon="83.69947">
        <ele>2532.73</ele>
        <time>2013-10-31T05:12:49Z</time>
      </trkpt>
      <trkpt lat="28.41603" lon="83.69947">
        <ele>2532.25</ele>
        <time>2013-10-31T05:13:13Z</time>
      </trkpt>
      <trkpt lat="28.41604" lon="83.69946">
        <ele>2533.21</ele>
        <time>2013-10-31T05:13:36Z</time>
      </trkpt>
      <trkpt lat="28.41604" lon="83.69945">
        <ele>2533.21</ele>
        <time>2013-10-31T05:14:01Z</time>
      </trkpt>
      <trkpt lat="28.41604" lon="83.69945">
        <ele>2533.21</ele>
        <time>2013-10-31T05:14:22Z</time>
      </trkpt>
      <trkpt lat="28.41604" lon="83.69946">
        <ele>2532.73</ele>
        <time>2013-10-31T05:14:39Z</time>
      </trkpt>
      <trkpt lat="28.41596" lon="83.69949">
        <ele>2534.65</ele>
        <time>2013-10-31T05:14:50Z</time>
      </trkpt>
      <trkpt lat="28.41588" lon="83.69948">
        <ele>2537.06</ele>
        <time>2013-10-31T05:15:02Z</time>
      </trkpt>
      <trkpt lat="28.41583" lon="83.69948">
        <ele>2539.46</ele>
        <time>2013-10-31T05:15:13Z</time>
      </trkpt>
      <trkpt lat="28.41574" lon="83.6995">
        <ele>2541.38</ele>
        <time>2013-10-31T05:15:26Z</time>
      </trkpt>
      <trkpt lat="28.41567" lon="83.69952">
        <ele>2543.79</ele>
        <time>2013-10-31T05:15:40Z</time>
      </trkpt>
      <trkpt lat="28.41558" lon="83.69954">
        <ele>2546.19</ele>
        <time>2013-10-31T05:15:52Z</time>
      </trkpt>
      <trkpt lat="28.41551" lon="83.69957">
        <ele>2546.19</ele>
        <time>2013-10-31T05:16:03Z</time>
      </trkpt>
      <trkpt lat="28.41546" lon="83.69958">
        <ele>2547.63</ele>
        <time>2013-10-31T05:16:09Z</time>
      </trkpt>
      <trkpt lat="28.41537" lon="83.69959">
        <ele>2549.55</ele>
        <time>2013-10-31T05:16:21Z</time>
      </trkpt>
      <trkpt lat="28.41528" lon="83.69964">
        <ele>2549.55</ele>
        <time>2013-10-31T05:16:34Z</time>
      </trkpt>
      <trkpt lat="28.41525" lon="83.69965">
        <ele>2550.03</ele>
        <time>2013-10-31T05:16:38Z</time>
      </trkpt>
      <trkpt lat="28.41516" lon="83.6997">
        <ele>2551.48</ele>
        <time>2013-10-31T05:16:52Z</time>
      </trkpt>
      <trkpt lat="28.41514" lon="83.69971">
        <ele>2551</ele>
        <time>2013-10-31T05:16:55Z</time>
      </trkpt>
      <trkpt lat="28.41504" lon="83.69976">
        <ele>2552.44</ele>
        <time>2013-10-31T05:17:08Z</time>
      </trkpt>
      <trkpt lat="28.41495" lon="83.69978">
        <ele>2552.92</ele>
        <time>2013-10-31T05:17:21Z</time>
      </trkpt>
      <trkpt lat="28.41487" lon="83.69978">
        <ele>2552.92</ele>
        <time>2013-10-31T05:17:33Z</time>
      </trkpt>
      <trkpt lat="28.41484" lon="83.69978">
        <ele>2553.88</ele>
        <time>2013-10-31T05:17:38Z</time>
      </trkpt>
      <trkpt lat="28.41482" lon="83.69977">
        <ele>2554.84</ele>
        <time>2013-10-31T05:17:41Z</time>
      </trkpt>
      <trkpt lat="28.41475" lon="83.69974">
        <ele>2556.28</ele>
        <time>2013-10-31T05:17:51Z</time>
      </trkpt>
      <trkpt lat="28.41464" lon="83.69969">
        <ele>2557.73</ele>
        <time>2013-10-31T05:18:05Z</time>
      </trkpt>
      <trkpt lat="28.41453" lon="83.69967">
        <ele>2558.21</ele>
        <time>2013-10-31T05:18:17Z</time>
      </trkpt>
      <trkpt lat="28.41439" lon="83.69966">
        <ele>2560.13</ele>
        <time>2013-10-31T05:18:31Z</time>
      </trkpt>
      <trkpt lat="28.41429" lon="83.69966">
        <ele>2561.57</ele>
        <time>2013-10-31T05:18:43Z</time>
      </trkpt>
      <trkpt lat="28.41415" lon="83.69963">
        <ele>2563.49</ele>
        <time>2013-10-31T05:18:58Z</time>
      </trkpt>
      <trkpt lat="28.41413" lon="83.69962">
        <ele>2563.49</ele>
        <time>2013-10-31T05:19:00Z</time>
      </trkpt>
      <trkpt lat="28.4141" lon="83.69961">
        <ele>2564.45</ele>
        <time>2013-10-31T05:19:04Z</time>
      </trkpt>
      <trkpt lat="28.414" lon="83.69961">
        <ele>2565.42</ele>
        <time>2013-10-31T05:19:17Z</time>
      </trkpt>
      <trkpt lat="28.41394" lon="83.69959">
        <ele>2567.34</ele>
        <time>2013-10-31T05:19:27Z</time>
      </trkpt>
      <trkpt lat="28.41386" lon="83.69954">
        <ele>2568.78</ele>
        <time>2013-10-31T05:19:41Z</time>
      </trkpt>
      <trkpt lat="28.41379" lon="83.69953">
        <ele>2569.74</ele>
        <time>2013-10-31T05:19:49Z</time>
      </trkpt>
      <trkpt lat="28.41377" lon="83.69952">
        <ele>2570.22</ele>
        <time>2013-10-31T05:19:51Z</time>
      </trkpt>
      <trkpt lat="28.41366" lon="83.69947">
        <ele>2571.66</ele>
        <time>2013-10-31T05:20:06Z</time>
      </trkpt>
      <trkpt lat="28.41355" lon="83.69942">
        <ele>2574.07</ele>
        <time>2013-10-31T05:20:22Z</time>
      </trkpt>
      <trkpt lat="28.41342" lon="83.69939">
        <ele>2575.99</ele>
        <time>2013-10-31T05:20:37Z</time>
      </trkpt>
      <trkpt lat="28.41329" lon="83.69933">
        <ele>2576.47</ele>
        <time>2013-10-31T05:20:51Z</time>
      </trkpt>
      <trkpt lat="28.41327" lon="83.69933">
        <ele>2576.47</ele>
        <time>2013-10-31T05:20:53Z</time>
      </trkpt>
      <trkpt lat="28.41321" lon="83.69931">
        <ele>2575.99</ele>
        <time>2013-10-31T05:20:59Z</time>
      </trkpt>
      <trkpt lat="28.4131" lon="83.69927">
        <ele>2577.43</ele>
        <time>2013-10-31T05:21:12Z</time>
      </trkpt>
      <trkpt lat="28.41301" lon="83.69929">
        <ele>2579.35</ele>
        <time>2013-10-31T05:21:24Z</time>
      </trkpt>
      <trkpt lat="28.41296" lon="83.69929">
        <ele>2580.8</ele>
        <time>2013-10-31T05:21:34Z</time>
      </trkpt>
      <trkpt lat="28.41287" lon="83.6993">
        <ele>2583.2</ele>
        <time>2013-10-31T05:21:49Z</time>
      </trkpt>
      <trkpt lat="28.41283" lon="83.69932">
        <ele>2586.08</ele>
        <time>2013-10-31T05:22:05Z</time>
      </trkpt>
      <trkpt lat="28.41273" lon="83.69932">
        <ele>2588.49</ele>
        <time>2013-10-31T05:22:19Z</time>
      </trkpt>
      <trkpt lat="28.41268" lon="83.69935">
        <ele>2590.41</ele>
        <time>2013-10-31T05:22:37Z</time>
      </trkpt>
      <trkpt lat="28.41262" lon="83.69934">
        <ele>2591.85</ele>
        <time>2013-10-31T05:22:49Z</time>
      </trkpt>
      <trkpt lat="28.41254" lon="83.69938">
        <ele>2594.25</ele>
        <time>2013-10-31T05:23:01Z</time>
      </trkpt>
      <trkpt lat="28.41245" lon="83.69941">
        <ele>2595.22</ele>
        <time>2013-10-31T05:23:15Z</time>
      </trkpt>
      <trkpt lat="28.41235" lon="83.69938">
        <ele>2597.14</ele>
        <time>2013-10-31T05:23:28Z</time>
      </trkpt>
      <trkpt lat="28.41231" lon="83.69937">
        <ele>2597.62</ele>
        <time>2013-10-31T05:23:41Z</time>
      </trkpt>
      <trkpt lat="28.41232" lon="83.69935">
        <ele>2597.62</ele>
        <time>2013-10-31T05:24:03Z</time>
      </trkpt>
      <trkpt lat="28.41232" lon="83.69935">
        <ele>2597.62</ele>
        <time>2013-10-31T05:24:21Z</time>
      </trkpt>
      <trkpt lat="28.41232" lon="83.69936">
        <ele>2598.1</ele>
        <time>2013-10-31T05:24:46Z</time>
      </trkpt>
      <trkpt lat="28.41233" lon="83.69936">
        <ele>2598.1</ele>
        <time>2013-10-31T05:25:05Z</time>
      </trkpt>
      <trkpt lat="28.41233" lon="83.69935">
        <ele>2598.58</ele>
        <time>2013-10-31T05:25:38Z</time>
      </trkpt>
      <trkpt lat="28.41233" lon="83.69936">
        <ele>2598.58</ele>
        <time>2013-10-31T05:26:07Z</time>
      </trkpt>
      <trkpt lat="28.41233" lon="83.69936">
        <ele>2598.58</ele>
        <time>2013-10-31T05:26:39Z</time>
      </trkpt>
      <trkpt lat="28.41233" lon="83.69936">
        <ele>2598.58</ele>
        <time>2013-10-31T05:27:11Z</time>
      </trkpt>
      <trkpt lat="28.41233" lon="83.69935">
        <ele>2598.1</ele>
        <time>2013-10-31T05:27:41Z</time>
      </trkpt>
      <trkpt lat="28.41232" lon="83.69935">
        <ele>2598.1</ele>
        <time>2013-10-31T05:28:16Z</time>
      </trkpt>
      <trkpt lat="28.41232" lon="83.69935">
        <ele>2598.58</ele>
        <time>2013-10-31T05:28:46Z</time>
      </trkpt>
      <trkpt lat="28.41232" lon="83.69935">
        <ele>2598.58</ele>
        <time>2013-10-31T05:29:21Z</time>
      </trkpt>
      <trkpt lat="28.41232" lon="83.69934">
        <ele>2598.1</ele>
        <time>2013-10-31T05:29:49Z</time>
      </trkpt>
      <trkpt lat="28.41231" lon="83.69934">
        <ele>2598.58</ele>
        <time>2013-10-31T05:30:19Z</time>
      </trkpt>
      <trkpt lat="28.41231" lon="83.69934">
        <ele>2598.58</ele>
        <time>2013-10-31T05:30:47Z</time>
      </trkpt>
      <trkpt lat="28.41231" lon="83.69934">
        <ele>2599.06</ele>
        <time>2013-10-31T05:31:21Z</time>
      </trkpt>
      <trkpt lat="28.41232" lon="83.69935">
        <ele>2599.06</ele>
        <time>2013-10-31T05:31:54Z</time>
      </trkpt>
      <trkpt lat="28.41233" lon="83.69934">
        <ele>2599.06</ele>
        <time>2013-10-31T05:32:24Z</time>
      </trkpt>
      <trkpt lat="28.41233" lon="83.69935">
        <ele>2598.58</ele>
        <time>2013-10-31T05:32:52Z</time>
      </trkpt>
      <trkpt lat="28.41233" lon="83.69935">
        <ele>2598.58</ele>
        <time>2013-10-31T05:33:12Z</time>
      </trkpt>
      <trkpt lat="28.41233" lon="83.69936">
        <ele>2598.58</ele>
        <time>2013-10-31T05:33:32Z</time>
      </trkpt>
      <trkpt lat="28.41233" lon="83.69936">
        <ele>2599.06</ele>
        <time>2013-10-31T05:33:54Z</time>
      </trkpt>
      <trkpt lat="28.41233" lon="83.69936">
        <ele>2599.06</ele>
        <time>2013-10-31T05:34:18Z</time>
      </trkpt>
      <trkpt lat="28.41231" lon="83.69935">
        <ele>2599.54</ele>
        <time>2013-10-31T05:34:45Z</time>
      </trkpt>
      <trkpt lat="28.41229" lon="83.69933">
        <ele>2600.02</ele>
        <time>2013-10-31T05:34:48Z</time>
      </trkpt>
      <trkpt lat="28.41219" lon="83.69931">
        <ele>2601.95</ele>
        <time>2013-10-31T05:35:01Z</time>
      </trkpt>
      <trkpt lat="28.41207" lon="83.69928">
        <ele>2603.87</ele>
        <time>2013-10-31T05:35:15Z</time>
      </trkpt>
      <trkpt lat="28.41204" lon="83.69927">
        <ele>2604.83</ele>
        <time>2013-10-31T05:35:20Z</time>
      </trkpt>
      <trkpt lat="28.41198" lon="83.69923">
        <ele>2606.75</ele>
        <time>2013-10-31T05:35:32Z</time>
      </trkpt>
      <trkpt lat="28.41188" lon="83.69917">
        <ele>2608.67</ele>
        <time>2013-10-31T05:35:45Z</time>
      </trkpt>
      <trkpt lat="28.4118" lon="83.69914">
        <ele>2610.6</ele>
        <time>2013-10-31T05:35:58Z</time>
      </trkpt>
      <trkpt lat="28.41173" lon="83.69912">
        <ele>2611.08</ele>
        <time>2013-10-31T05:36:10Z</time>
      </trkpt>
      <trkpt lat="28.41166" lon="83.69909">
        <ele>2613</ele>
        <time>2013-10-31T05:36:23Z</time>
      </trkpt>
      <trkpt lat="28.41159" lon="83.69905">
        <ele>2614.44</ele>
        <time>2013-10-31T05:36:35Z</time>
      </trkpt>
      <trkpt lat="28.41154" lon="83.69903">
        <ele>2615.88</ele>
        <time>2013-10-31T05:36:45Z</time>
      </trkpt>
      <trkpt lat="28.41149" lon="83.69901">
        <ele>2617.81</ele>
        <time>2013-10-31T05:36:59Z</time>
      </trkpt>
      <trkpt lat="28.4114" lon="83.69899">
        <ele>2619.25</ele>
        <time>2013-10-31T05:37:10Z</time>
      </trkpt>
      <trkpt lat="28.41132" lon="83.69897">
        <ele>2620.69</ele>
        <time>2013-10-31T05:37:24Z</time>
      </trkpt>
      <trkpt lat="28.41124" lon="83.69893">
        <ele>2623.58</ele>
        <time>2013-10-31T05:37:40Z</time>
      </trkpt>
      <trkpt lat="28.41115" lon="83.69891">
        <ele>2625.5</ele>
        <time>2013-10-31T05:37:55Z</time>
      </trkpt>
      <trkpt lat="28.4111" lon="83.6989">
        <ele>2626.94</ele>
        <time>2013-10-31T05:38:07Z</time>
      </trkpt>
      <trkpt lat="28.41106" lon="83.6989">
        <ele>2628.86</ele>
        <time>2013-10-31T05:38:18Z</time>
      </trkpt>
      <trkpt lat="28.41102" lon="83.6989">
        <ele>2630.3</ele>
        <time>2013-10-31T05:38:31Z</time>
      </trkpt>
      <trkpt lat="28.41095" lon="83.69888">
        <ele>2632.23</ele>
        <time>2013-10-31T05:38:45Z</time>
      </trkpt>
      <trkpt lat="28.41085" lon="83.69883">
        <ele>2635.11</ele>
        <time>2013-10-31T05:38:59Z</time>
      </trkpt>
      <trkpt lat="28.41075" lon="83.69884">
        <ele>2636.55</ele>
        <time>2013-10-31T05:39:12Z</time>
      </trkpt>
      <trkpt lat="28.4107" lon="83.69876">
        <ele>2638.48</ele>
        <time>2013-10-31T05:39:25Z</time>
      </trkpt>
      <trkpt lat="28.41064" lon="83.69866">
        <ele>2640.4</ele>
        <time>2013-10-31T05:39:39Z</time>
      </trkpt>
      <trkpt lat="28.41059" lon="83.69859">
        <ele>2642.32</ele>
        <time>2013-10-31T05:39:52Z</time>
      </trkpt>
      <trkpt lat="28.41061" lon="83.69855">
        <ele>2643.28</ele>
        <time>2013-10-31T05:40:10Z</time>
      </trkpt>
      <trkpt lat="28.41058" lon="83.69851">
        <ele>2644.72</ele>
        <time>2013-10-31T05:40:29Z</time>
      </trkpt>
      <trkpt lat="28.4105" lon="83.69847">
        <ele>2647.61</ele>
        <time>2013-10-31T05:40:42Z</time>
      </trkpt>
      <trkpt lat="28.41043" lon="83.69842">
        <ele>2649.53</ele>
        <time>2013-10-31T05:40:58Z</time>
      </trkpt>
      <trkpt lat="28.41037" lon="83.69838">
        <ele>2651.45</ele>
        <time>2013-10-31T05:41:10Z</time>
      </trkpt>
      <trkpt lat="28.41031" lon="83.69839">
        <ele>2653.38</ele>
        <time>2013-10-31T05:41:23Z</time>
      </trkpt>
      <trkpt lat="28.41023" lon="83.69839">
        <ele>2655.3</ele>
        <time>2013-10-31T05:41:38Z</time>
      </trkpt>
      <trkpt lat="28.41018" lon="83.69837">
        <ele>2657.7</ele>
        <time>2013-10-31T05:41:52Z</time>
      </trkpt>
      <trkpt lat="28.41013" lon="83.69828">
        <ele>2659.62</ele>
        <time>2013-10-31T05:42:06Z</time>
      </trkpt>
      <trkpt lat="28.41003" lon="83.69825">
        <ele>2662.03</ele>
        <time>2013-10-31T05:42:19Z</time>
      </trkpt>
      <trkpt lat="28.40996" lon="83.69818">
        <ele>2663.95</ele>
        <time>2013-10-31T05:42:35Z</time>
      </trkpt>
      <trkpt lat="28.40988" lon="83.6981">
        <ele>2665.87</ele>
        <time>2013-10-31T05:42:52Z</time>
      </trkpt>
      <trkpt lat="28.40979" lon="83.69807">
        <ele>2668.28</ele>
        <time>2013-10-31T05:43:07Z</time>
      </trkpt>
      <trkpt lat="28.40972" lon="83.6981">
        <ele>2669.72</ele>
        <time>2013-10-31T05:43:21Z</time>
      </trkpt>
      <trkpt lat="28.40964" lon="83.69808">
        <ele>2671.64</ele>
        <time>2013-10-31T05:43:36Z</time>
      </trkpt>
      <trkpt lat="28.40958" lon="83.69811">
        <ele>2674.04</ele>
        <time>2013-10-31T05:43:50Z</time>
      </trkpt>
      <trkpt lat="28.40951" lon="83.69813">
        <ele>2676.45</ele>
        <time>2013-10-31T05:44:04Z</time>
      </trkpt>
      <trkpt lat="28.40945" lon="83.69811">
        <ele>2677.89</ele>
        <time>2013-10-31T05:44:17Z</time>
      </trkpt>
      <trkpt lat="28.40937" lon="83.69814">
        <ele>2680.29</ele>
        <time>2013-10-31T05:44:29Z</time>
      </trkpt>
      <trkpt lat="28.40935" lon="83.69815">
        <ele>2680.29</ele>
        <time>2013-10-31T05:44:33Z</time>
      </trkpt>
      <trkpt lat="28.40926" lon="83.69819">
        <ele>2681.25</ele>
        <time>2013-10-31T05:44:43Z</time>
      </trkpt>
      <trkpt lat="28.40918" lon="83.69819">
        <ele>2682.22</ele>
        <time>2013-10-31T05:44:54Z</time>
      </trkpt>
      <trkpt lat="28.40907" lon="83.69822">
        <ele>2683.66</ele>
        <time>2013-10-31T05:45:07Z</time>
      </trkpt>
      <trkpt lat="28.40892" lon="83.69821">
        <ele>2685.58</ele>
        <time>2013-10-31T05:45:23Z</time>
      </trkpt>
      <trkpt lat="28.4089" lon="83.69821">
        <ele>2686.06</ele>
        <time>2013-10-31T05:45:28Z</time>
      </trkpt>
      <trkpt lat="28.4088" lon="83.6982">
        <ele>2687.98</ele>
        <time>2013-10-31T05:45:44Z</time>
      </trkpt>
      <trkpt lat="28.40875" lon="83.69818">
        <ele>2690.39</ele>
        <time>2013-10-31T05:45:58Z</time>
      </trkpt>
      <trkpt lat="28.40869" lon="83.69816">
        <ele>2691.35</ele>
        <time>2013-10-31T05:46:10Z</time>
      </trkpt>
      <trkpt lat="28.40866" lon="83.69816">
        <ele>2692.31</ele>
        <time>2013-10-31T05:46:14Z</time>
      </trkpt>
      <trkpt lat="28.40861" lon="83.69818">
        <ele>2694.23</ele>
        <time>2013-10-31T05:46:27Z</time>
      </trkpt>
      <trkpt lat="28.40854" lon="83.69819">
        <ele>2695.67</ele>
        <time>2013-10-31T05:46:38Z</time>
      </trkpt>
      <trkpt lat="28.40846" lon="83.69823">
        <ele>2697.6</ele>
        <time>2013-10-31T05:46:51Z</time>
      </trkpt>
      <trkpt lat="28.40841" lon="83.69825">
        <ele>2699.04</ele>
        <time>2013-10-31T05:47:05Z</time>
      </trkpt>
      <trkpt lat="28.40836" lon="83.69825">
        <ele>2701.44</ele>
        <time>2013-10-31T05:47:21Z</time>
      </trkpt>
      <trkpt lat="28.4083" lon="83.69815">
        <ele>2703.85</ele>
        <time>2013-10-31T05:47:36Z</time>
      </trkpt>
      <trkpt lat="28.40826" lon="83.69809">
        <ele>2705.29</ele>
        <time>2013-10-31T05:47:49Z</time>
      </trkpt>
      <trkpt lat="28.40814" lon="83.69809">
        <ele>2707.21</ele>
        <time>2013-10-31T05:48:04Z</time>
      </trkpt>
      <trkpt lat="28.40806" lon="83.69813">
        <ele>2709.61</ele>
        <time>2013-10-31T05:48:18Z</time>
      </trkpt>
      <trkpt lat="28.408" lon="83.69806">
        <ele>2712.5</ele>
        <time>2013-10-31T05:48:33Z</time>
      </trkpt>
      <trkpt lat="28.40792" lon="83.69807">
        <ele>2712.98</ele>
        <time>2013-10-31T05:48:44Z</time>
      </trkpt>
      <trkpt lat="28.40781" lon="83.69812">
        <ele>2714.42</ele>
        <time>2013-10-31T05:48:56Z</time>
      </trkpt>
      <trkpt lat="28.40778" lon="83.69813">
        <ele>2715.38</ele>
        <time>2013-10-31T05:49:10Z</time>
      </trkpt>
      <trkpt lat="28.40779" lon="83.69812">
        <ele>2713.94</ele>
        <time>2013-10-31T05:49:23Z</time>
      </trkpt>
      <trkpt lat="28.40779" lon="83.69812">
        <ele>2717.78</ele>
        <time>2013-10-31T05:49:24Z</time>
      </trkpt>
      <trkpt lat="28.40781" lon="83.69813">
        <ele>2715.86</ele>
        <time>2013-10-31T05:49:55Z</time>
      </trkpt>
      <trkpt lat="28.40781" lon="83.69811">
        <ele>2716.82</ele>
        <time>2013-10-31T05:50:23Z</time>
      </trkpt>
      <trkpt lat="28.40782" lon="83.69811">
        <ele>2716.34</ele>
        <time>2013-10-31T05:50:59Z</time>
      </trkpt>
      <trkpt lat="28.40782" lon="83.69811">
        <ele>2716.34</ele>
        <time>2013-10-31T05:51:29Z</time>
      </trkpt>
      <trkpt lat="28.40782" lon="83.69811">
        <ele>2715.86</ele>
        <time>2013-10-31T05:51:53Z</time>
      </trkpt>
      <trkpt lat="28.40781" lon="83.69812">
        <ele>2716.34</ele>
        <time>2013-10-31T05:52:22Z</time>
      </trkpt>
      <trkpt lat="28.40782" lon="83.69812">
        <ele>2716.34</ele>
        <time>2013-10-31T05:52:50Z</time>
      </trkpt>
      <trkpt lat="28.40782" lon="83.69811">
        <ele>2716.82</ele>
        <time>2013-10-31T05:53:21Z</time>
      </trkpt>
      <trkpt lat="28.40782" lon="83.69811">
        <ele>2716.34</ele>
        <time>2013-10-31T05:53:41Z</time>
      </trkpt>
      <trkpt lat="28.40783" lon="83.69811">
        <ele>2717.3</ele>
        <time>2013-10-31T05:54:08Z</time>
      </trkpt>
      <trkpt lat="28.40785" lon="83.69812">
        <ele>2717.3</ele>
        <time>2013-10-31T05:54:40Z</time>
      </trkpt>
      <trkpt lat="28.40785" lon="83.69812">
        <ele>2717.3</ele>
        <time>2013-10-31T05:55:10Z</time>
      </trkpt>
      <trkpt lat="28.40785" lon="83.69812">
        <ele>2717.3</ele>
        <time>2013-10-31T05:55:36Z</time>
      </trkpt>
      <trkpt lat="28.40785" lon="83.69812">
        <ele>2717.78</ele>
        <time>2013-10-31T05:56:01Z</time>
      </trkpt>
      <trkpt lat="28.40785" lon="83.69811">
        <ele>2717.3</ele>
        <time>2013-10-31T05:56:34Z</time>
      </trkpt>
      <trkpt lat="28.40785" lon="83.69812">
        <ele>2717.3</ele>
        <time>2013-10-31T05:56:53Z</time>
      </trkpt>
      <trkpt lat="28.40782" lon="83.69812">
        <ele>2718.27</ele>
        <time>2013-10-31T05:57:01Z</time>
      </trkpt>
      <trkpt lat="28.40769" lon="83.69822">
        <ele>2719.23</ele>
        <time>2013-10-31T05:57:14Z</time>
      </trkpt>
      <trkpt lat="28.40755" lon="83.69827">
        <ele>2720.19</ele>
        <time>2013-10-31T05:57:29Z</time>
      </trkpt>
      <trkpt lat="28.40754" lon="83.69827">
        <ele>2721.15</ele>
        <time>2013-10-31T05:57:30Z</time>
      </trkpt>
      <trkpt lat="28.40747" lon="83.69836">
        <ele>2722.59</ele>
        <time>2013-10-31T05:57:45Z</time>
      </trkpt>
      <trkpt lat="28.4074" lon="83.69839">
        <ele>2724.51</ele>
        <time>2013-10-31T05:57:57Z</time>
      </trkpt>
      <trkpt lat="28.40734" lon="83.69846">
        <ele>2726.44</ele>
        <time>2013-10-31T05:58:12Z</time>
      </trkpt>
      <trkpt lat="28.4073" lon="83.69852">
        <ele>2728.84</ele>
        <time>2013-10-31T05:58:26Z</time>
      </trkpt>
      <trkpt lat="28.40723" lon="83.69856">
        <ele>2730.76</ele>
        <time>2013-10-31T05:58:39Z</time>
      </trkpt>
      <trkpt lat="28.4072" lon="83.69858">
        <ele>2732.68</ele>
        <time>2013-10-31T05:58:51Z</time>
      </trkpt>
      <trkpt lat="28.40714" lon="83.69862">
        <ele>2734.13</ele>
        <time>2013-10-31T05:59:02Z</time>
      </trkpt>
      <trkpt lat="28.40708" lon="83.6987">
        <ele>2735.57</ele>
        <time>2013-10-31T05:59:13Z</time>
      </trkpt>
      <trkpt lat="28.40705" lon="83.69881">
        <ele>2736.53</ele>
        <time>2013-10-31T05:59:26Z</time>
      </trkpt>
      <trkpt lat="28.40703" lon="83.69892">
        <ele>2738.45</ele>
        <time>2013-10-31T05:59:38Z</time>
      </trkpt>
      <trkpt lat="28.40692" lon="83.69898">
        <ele>2739.41</ele>
        <time>2013-10-31T05:59:52Z</time>
      </trkpt>
      <trkpt lat="28.40681" lon="83.69903">
        <ele>2741.34</ele>
        <time>2013-10-31T06:00:07Z</time>
      </trkpt>
      <trkpt lat="28.40674" lon="83.69904">
        <ele>2743.74</ele>
        <time>2013-10-31T06:00:20Z</time>
      </trkpt>
      <trkpt lat="28.40667" lon="83.69906">
        <ele>2745.18</ele>
        <time>2013-10-31T06:00:32Z</time>
      </trkpt>
      <trkpt lat="28.40659" lon="83.69912">
        <ele>2747.1</ele>
        <time>2013-10-31T06:00:45Z</time>
      </trkpt>
      <trkpt lat="28.40652" lon="83.69914">
        <ele>2749.03</ele>
        <time>2013-10-31T06:01:02Z</time>
      </trkpt>
      <trkpt lat="28.40642" lon="83.69915">
        <ele>2750.95</ele>
        <time>2013-10-31T06:01:15Z</time>
      </trkpt>
      <trkpt lat="28.40634" lon="83.69917">
        <ele>2753.35</ele>
        <time>2013-10-31T06:01:30Z</time>
      </trkpt>
      <trkpt lat="28.40628" lon="83.69915">
        <ele>2755.28</ele>
        <time>2013-10-31T06:01:44Z</time>
      </trkpt>
      <trkpt lat="28.40617" lon="83.69915">
        <ele>2757.68</ele>
        <time>2013-10-31T06:02:00Z</time>
      </trkpt>
      <trkpt lat="28.40609" lon="83.69917">
        <ele>2758.16</ele>
        <time>2013-10-31T06:02:18Z</time>
      </trkpt>
      <trkpt lat="28.40597" lon="83.69914">
        <ele>2760.56</ele>
        <time>2013-10-31T06:02:33Z</time>
      </trkpt>
      <trkpt lat="28.4059" lon="83.69907">
        <ele>2761.52</ele>
        <time>2013-10-31T06:02:45Z</time>
      </trkpt>
      <trkpt lat="28.40589" lon="83.69908">
        <ele>2762.49</ele>
        <time>2013-10-31T06:03:06Z</time>
      </trkpt>
      <trkpt lat="28.40586" lon="83.69906">
        <ele>2762.49</ele>
        <time>2013-10-31T06:03:16Z</time>
      </trkpt>
      <trkpt lat="28.40584" lon="83.69908">
        <ele>2763.45</ele>
        <time>2013-10-31T06:03:31Z</time>
      </trkpt>
      <trkpt lat="28.40582" lon="83.69908">
        <ele>2762.97</ele>
        <time>2013-10-31T06:03:49Z</time>
      </trkpt>
      <trkpt lat="28.40573" lon="83.69908">
        <ele>2764.41</ele>
        <time>2013-10-31T06:04:03Z</time>
      </trkpt>
      <trkpt lat="28.40572" lon="83.69908">
        <ele>2764.89</ele>
        <time>2013-10-31T06:04:27Z</time>
      </trkpt>
      <trkpt lat="28.4057" lon="83.69907">
        <ele>2765.37</ele>
        <time>2013-10-31T06:04:44Z</time>
      </trkpt>
      <trkpt lat="28.40569" lon="83.69907">
        <ele>2765.37</ele>
        <time>2013-10-31T06:04:59Z</time>
      </trkpt>
      <trkpt lat="28.40568" lon="83.69906">
        <ele>2764.41</ele>
        <time>2013-10-31T06:05:24Z</time>
      </trkpt>
      <trkpt lat="28.40563" lon="83.69908">
        <ele>2766.33</ele>
        <time>2013-10-31T06:05:39Z</time>
      </trkpt>
      <trkpt lat="28.40563" lon="83.69907">
        <ele>2765.85</ele>
        <time>2013-10-31T06:05:56Z</time>
      </trkpt>
      <trkpt lat="28.40557" lon="83.69905">
        <ele>2766.33</ele>
        <time>2013-10-31T06:06:12Z</time>
      </trkpt>
      <trkpt lat="28.40557" lon="83.69904">
        <ele>2766.33</ele>
        <time>2013-10-31T06:06:13Z</time>
      </trkpt>
      <trkpt lat="28.40546" lon="83.69901">
        <ele>2767.29</ele>
        <time>2013-10-31T06:06:28Z</time>
      </trkpt>
      <trkpt lat="28.40539" lon="83.69899">
        <ele>2768.73</ele>
        <time>2013-10-31T06:06:42Z</time>
      </trkpt>
      <trkpt lat="28.40535" lon="83.69901">
        <ele>2768.73</ele>
        <time>2013-10-31T06:06:58Z</time>
      </trkpt>
      <trkpt lat="28.40532" lon="83.69908">
        <ele>2770.18</ele>
        <time>2013-10-31T06:07:17Z</time>
      </trkpt>
      <trkpt lat="28.40533" lon="83.69918">
        <ele>2773.54</ele>
        <time>2013-10-31T06:07:29Z</time>
      </trkpt>
      <trkpt lat="28.40526" lon="83.69921">
        <ele>2774.98</ele>
        <time>2013-10-31T06:07:42Z</time>
      </trkpt>
      <trkpt lat="28.40522" lon="83.6992">
        <ele>2777.87</ele>
        <time>2013-10-31T06:07:54Z</time>
      </trkpt>
      <trkpt lat="28.40515" lon="83.69921">
        <ele>2780.27</ele>
        <time>2013-10-31T06:08:12Z</time>
      </trkpt>
      <trkpt lat="28.40514" lon="83.69922">
        <ele>2781.71</ele>
        <time>2013-10-31T06:08:35Z</time>
      </trkpt>
      <trkpt lat="28.40509" lon="83.69922">
        <ele>2783.63</ele>
        <time>2013-10-31T06:08:46Z</time>
      </trkpt>
      <trkpt lat="28.40503" lon="83.69919">
        <ele>2786.52</ele>
        <time>2013-10-31T06:09:00Z</time>
      </trkpt>
      <trkpt lat="28.40503" lon="83.6992">
        <ele>2788.44</ele>
        <time>2013-10-31T06:09:17Z</time>
      </trkpt>
      <trkpt lat="28.40497" lon="83.69924">
        <ele>2789.88</ele>
        <time>2013-10-31T06:09:30Z</time>
      </trkpt>
      <trkpt lat="28.40496" lon="83.69926">
        <ele>2792.29</ele>
        <time>2013-10-31T06:09:45Z</time>
      </trkpt>
      <trkpt lat="28.40494" lon="83.69931">
        <ele>2794.69</ele>
        <time>2013-10-31T06:09:58Z</time>
      </trkpt>
      <trkpt lat="28.40489" lon="83.69934">
        <ele>2797.57</ele>
        <time>2013-10-31T06:10:17Z</time>
      </trkpt>
      <trkpt lat="28.40478" lon="83.69936">
        <ele>2799.5</ele>
        <time>2013-10-31T06:10:32Z</time>
      </trkpt>
      <trkpt lat="28.40459" lon="83.69941">
        <ele>2801.9</ele>
        <time>2013-10-31T06:10:47Z</time>
      </trkpt>
      <trkpt lat="28.40457" lon="83.69943">
        <ele>2803.34</ele>
        <time>2013-10-31T06:11:03Z</time>
      </trkpt>
      <trkpt lat="28.40453" lon="83.69944">
        <ele>2806.71</ele>
        <time>2013-10-31T06:11:12Z</time>
      </trkpt>
      <trkpt lat="28.40449" lon="83.69946">
        <ele>2807.67</ele>
        <time>2013-10-31T06:11:23Z</time>
      </trkpt>
      <trkpt lat="28.40446" lon="83.69949">
        <ele>2808.63</ele>
        <time>2013-10-31T06:11:37Z</time>
      </trkpt>
      <trkpt lat="28.40441" lon="83.69953">
        <ele>2811.99</ele>
        <time>2013-10-31T06:11:51Z</time>
      </trkpt>
      <trkpt lat="28.40438" lon="83.69954">
        <ele>2812.96</ele>
        <time>2013-10-31T06:12:06Z</time>
      </trkpt>
      <trkpt lat="28.40431" lon="83.69957">
        <ele>2814.4</ele>
        <time>2013-10-31T06:12:18Z</time>
      </trkpt>
      <trkpt lat="28.40426" lon="83.69958">
        <ele>2817.28</ele>
        <time>2013-10-31T06:12:34Z</time>
      </trkpt>
      <trkpt lat="28.40421" lon="83.6996">
        <ele>2818.72</ele>
        <time>2013-10-31T06:12:51Z</time>
      </trkpt>
      <trkpt lat="28.40415" lon="83.69964">
        <ele>2820.16</ele>
        <time>2013-10-31T06:13:04Z</time>
      </trkpt>
      <trkpt lat="28.40407" lon="83.69966">
        <ele>2823.05</ele>
        <time>2013-10-31T06:13:20Z</time>
      </trkpt>
      <trkpt lat="28.40404" lon="83.69971">
        <ele>2824.97</ele>
        <time>2013-10-31T06:13:33Z</time>
      </trkpt>
      <trkpt lat="28.404" lon="83.69971">
        <ele>2824.97</ele>
        <time>2013-10-31T06:13:50Z</time>
      </trkpt>
      <trkpt lat="28.404" lon="83.6997">
        <ele>2824.97</ele>
        <time>2013-10-31T06:14:11Z</time>
      </trkpt>
      <trkpt lat="28.404" lon="83.69971">
        <ele>2824.49</ele>
        <time>2013-10-31T06:14:26Z</time>
      </trkpt>
      <trkpt lat="28.40398" lon="83.69969">
        <ele>2824.97</ele>
        <time>2013-10-31T06:14:41Z</time>
      </trkpt>
      <trkpt lat="28.40398" lon="83.69968">
        <ele>2825.45</ele>
        <time>2013-10-31T06:15:01Z</time>
      </trkpt>
      <trkpt lat="28.40398" lon="83.69969">
        <ele>2825.45</ele>
        <time>2013-10-31T06:15:30Z</time>
      </trkpt>
      <trkpt lat="28.40398" lon="83.69968">
        <ele>2824.97</ele>
        <time>2013-10-31T06:15:52Z</time>
      </trkpt>
      <trkpt lat="28.40399" lon="83.69968">
        <ele>2825.45</ele>
        <time>2013-10-31T06:16:09Z</time>
      </trkpt>
      <trkpt lat="28.40399" lon="83.6997">
        <ele>2824.97</ele>
        <time>2013-10-31T06:16:42Z</time>
      </trkpt>
      <trkpt lat="28.404" lon="83.69971">
        <ele>2825.45</ele>
        <time>2013-10-31T06:17:14Z</time>
      </trkpt>
      <trkpt lat="28.404" lon="83.69971">
        <ele>2825.93</ele>
        <time>2013-10-31T06:17:29Z</time>
      </trkpt>
      <trkpt lat="28.404" lon="83.69972">
        <ele>2825.93</ele>
        <time>2013-10-31T06:17:46Z</time>
      </trkpt>
      <trkpt lat="28.40402" lon="83.69973">
        <ele>2825.93</ele>
        <time>2013-10-31T06:18:11Z</time>
      </trkpt>
      <trkpt lat="28.40403" lon="83.69973">
        <ele>2825.45</ele>
        <time>2013-10-31T06:18:35Z</time>
      </trkpt>
      <trkpt lat="28.40404" lon="83.69972">
        <ele>2825.93</ele>
        <time>2013-10-31T06:18:53Z</time>
      </trkpt>
      <trkpt lat="28.40402" lon="83.69974">
        <ele>2825.93</ele>
        <time>2013-10-31T06:19:19Z</time>
      </trkpt>
      <trkpt lat="28.404" lon="83.69974">
        <ele>2825.93</ele>
        <time>2013-10-31T06:19:33Z</time>
      </trkpt>
      <trkpt lat="28.40394" lon="83.69976">
        <ele>2827.85</ele>
        <time>2013-10-31T06:19:46Z</time>
      </trkpt>
      <trkpt lat="28.40386" lon="83.69984">
        <ele>2830.26</ele>
        <time>2013-10-31T06:20:04Z</time>
      </trkpt>
      <trkpt lat="28.4038" lon="83.69987">
        <ele>2832.18</ele>
        <time>2013-10-31T06:20:13Z</time>
      </trkpt>
      <trkpt lat="28.4037" lon="83.69993">
        <ele>2834.58</ele>
        <time>2013-10-31T06:20:27Z</time>
      </trkpt>
      <trkpt lat="28.40359" lon="83.69992">
        <ele>2837.47</ele>
        <time>2013-10-31T06:20:41Z</time>
      </trkpt>
      <trkpt lat="28.40351" lon="83.69994">
        <ele>2839.39</ele>
        <time>2013-10-31T06:20:53Z</time>
      </trkpt>
      <trkpt lat="28.40344" lon="83.69994">
        <ele>2841.79</ele>
        <time>2013-10-31T06:21:02Z</time>
      </trkpt>
      <trkpt lat="28.4034" lon="83.69997">
        <ele>2842.76</ele>
        <time>2013-10-31T06:21:15Z</time>
      </trkpt>
      <trkpt lat="28.40336" lon="83.69998">
        <ele>2844.68</ele>
        <time>2013-10-31T06:21:27Z</time>
      </trkpt>
      <trkpt lat="28.40333" lon="83.69998">
        <ele>2846.6</ele>
        <time>2013-10-31T06:21:39Z</time>
      </trkpt>
      <trkpt lat="28.40325" lon="83.70002">
        <ele>2847.08</ele>
        <time>2013-10-31T06:21:49Z</time>
      </trkpt>
      <trkpt lat="28.40317" lon="83.70002">
        <ele>2849.48</ele>
        <time>2013-10-31T06:22:02Z</time>
      </trkpt>
      <trkpt lat="28.40312" lon="83.70002">
        <ele>2850.45</ele>
        <time>2013-10-31T06:22:17Z</time>
      </trkpt>
      <trkpt lat="28.40311" lon="83.70004">
        <ele>2851.89</ele>
        <time>2013-10-31T06:22:35Z</time>
      </trkpt>
      <trkpt lat="28.4031" lon="83.70002">
        <ele>2852.85</ele>
        <time>2013-10-31T06:22:47Z</time>
      </trkpt>
      <trkpt lat="28.40312" lon="83.70002">
        <ele>2852.85</ele>
        <time>2013-10-31T06:23:06Z</time>
      </trkpt>
      <trkpt lat="28.40312" lon="83.70002">
        <ele>2851.89</ele>
        <time>2013-10-31T06:23:23Z</time>
      </trkpt>
      <trkpt lat="28.40312" lon="83.70003">
        <ele>2851.89</ele>
        <time>2013-10-31T06:23:42Z</time>
      </trkpt>
      <trkpt lat="28.40312" lon="83.70002">
        <ele>2848.52</ele>
        <time>2013-10-31T06:23:55Z</time>
      </trkpt>
      <trkpt lat="28.40312" lon="83.70003">
        <ele>2842.76</ele>
        <time>2013-10-31T06:24:02Z</time>
      </trkpt>
      <trkpt lat="28.40312" lon="83.70003">
        <ele>2850.93</ele>
        <time>2013-10-31T06:24:03Z</time>
      </trkpt>
      <trkpt lat="28.40312" lon="83.70003">
        <ele>2852.37</ele>
        <time>2013-10-31T06:24:06Z</time>
      </trkpt>
      <trkpt lat="28.40312" lon="83.70003">
        <ele>2865.35</ele>
        <time>2013-10-31T06:24:07Z</time>
      </trkpt>
      <trkpt lat="28.40312" lon="83.70003">
        <ele>2857.18</ele>
        <time>2013-10-31T06:24:08Z</time>
      </trkpt>
      <trkpt lat="28.40312" lon="83.70003">
        <ele>2852.37</ele>
        <time>2013-10-31T06:24:09Z</time>
      </trkpt>
      <trkpt lat="28.40309" lon="83.70004">
        <ele>2852.37</ele>
        <time>2013-10-31T06:24:23Z</time>
      </trkpt>
      <trkpt lat="28.40307" lon="83.70001">
        <ele>2853.81</ele>
        <time>2013-10-31T06:24:38Z</time>
      </trkpt>
      <trkpt lat="28.40304" lon="83.69999">
        <ele>2854.77</ele>
        <time>2013-10-31T06:24:47Z</time>
      </trkpt>
      <trkpt lat="28.40296" lon="83.70007">
        <ele>2857.18</ele>
        <time>2013-10-31T06:25:00Z</time>
      </trkpt>
      <trkpt lat="28.40292" lon="83.69997">
        <ele>2857.66</ele>
        <time>2013-10-31T06:25:16Z</time>
      </trkpt>
      <trkpt lat="28.40277" lon="83.69994">
        <ele>2857.66</ele>
        <time>2013-10-31T06:25:36Z</time>
      </trkpt>
      <trkpt lat="28.40286" lon="83.6998">
        <ele>2857.66</ele>
        <time>2013-10-31T06:25:55Z</time>
      </trkpt>
      <trkpt lat="28.4031" lon="83.69981">
        <ele>2857.66</ele>
        <time>2013-10-31T06:26:16Z</time>
      </trkpt>
      <trkpt lat="28.40317" lon="83.69987">
        <ele>2857.66</ele>
        <time>2013-10-31T06:26:35Z</time>
      </trkpt>
      <trkpt lat="28.40318" lon="83.69987">
        <ele>2857.18</ele>
        <time>2013-10-31T06:26:57Z</time>
      </trkpt>
      <trkpt lat="28.40324" lon="83.69977">
        <ele>2857.18</ele>
        <time>2013-10-31T06:27:20Z</time>
      </trkpt>
      <trkpt lat="28.40326" lon="83.69975">
        <ele>2857.18</ele>
        <time>2013-10-31T06:27:39Z</time>
      </trkpt>
      <trkpt lat="28.40316" lon="83.69982">
        <ele>2857.18</ele>
        <time>2013-10-31T06:28:09Z</time>
      </trkpt>
      <trkpt lat="28.40322" lon="83.69982">
        <ele>2856.21</ele>
        <time>2013-10-31T06:28:30Z</time>
      </trkpt>
      <trkpt lat="28.40327" lon="83.69979">
        <ele>2857.18</ele>
        <time>2013-10-31T06:28:53Z</time>
      </trkpt>
      <trkpt lat="28.40325" lon="83.69984">
        <ele>2856.21</ele>
        <time>2013-10-31T06:29:09Z</time>
      </trkpt>
      <trkpt lat="28.40326" lon="83.69984">
        <ele>2856.69</ele>
        <time>2013-10-31T06:29:35Z</time>
      </trkpt>
      <trkpt lat="28.40327" lon="83.6998">
        <ele>2856.69</ele>
        <time>2013-10-31T06:29:38Z</time>
      </trkpt>
      <trkpt lat="28.40324" lon="83.69983">
        <ele>2856.21</ele>
        <time>2013-10-31T06:29:59Z</time>
      </trkpt>
      <trkpt lat="28.40322" lon="83.69982">
        <ele>2856.69</ele>
        <time>2013-10-31T06:30:20Z</time>
      </trkpt>
      <trkpt lat="28.40326" lon="83.69981">
        <ele>2856.69</ele>
        <time>2013-10-31T06:30:43Z</time>
      </trkpt>
      <trkpt lat="28.40336" lon="83.6998">
        <ele>2856.69</ele>
        <time>2013-10-31T06:31:11Z</time>
      </trkpt>
      <trkpt lat="28.40335" lon="83.6998">
        <ele>2856.69</ele>
        <time>2013-10-31T06:31:39Z</time>
      </trkpt>
      <trkpt lat="28.40333" lon="83.6998">
        <ele>2856.69</ele>
        <time>2013-10-31T06:32:05Z</time>
      </trkpt>
      <trkpt lat="28.40333" lon="83.69979">
        <ele>2856.69</ele>
        <time>2013-10-31T06:32:33Z</time>
      </trkpt>
      <trkpt lat="28.40335" lon="83.69974">
        <ele>2856.69</ele>
        <time>2013-10-31T06:33:01Z</time>
      </trkpt>
    </trkseg>
  </trk>
</gpx>